Observation data for Canadian on 05/25/2019      Previous  Date  Next       Current Mesonet Observations  Soil Data  Daily Summary Page  Observations in Plain Language
KCA1 250500Z 17012KT 17/16 A2993 RMK A01 T01710163  RH  095%=      5-min Rain = 0
KCA1 250501Z 18010KT 17/16 A2993 RMK A01 T01710163  RH  095%=      5-min Rain = 0
KCA1 250502Z 17009KT 17/16 A2993 RMK A01 T01710163  RH  095%=      5-min Rain = 0
KCA1 250503Z 16009KT 17/16 A2993 RMK A01 T01710163  RH  095%=      5-min Rain = 0
KCA1 250504Z 16009KT 17/16 A2993 RMK A01 T01710163  RH  095%=      5-min Rain = 0
KCA1 250505Z 17007KT 17/16 A2993 RMK A01 T01710163  RH  095%=      5-min Rain = 0
KCA1 250506Z 17007KT 17/16 A2993 RMK A01 T01710163  RH  095%=      5-min Rain = 0
KCA1 250507Z 17007KT 17/16 A2993 RMK A01 T01710163  RH  095%=      5-min Rain = 0
KCA1 250508Z 17008KT 17/16 A2993 RMK A01 T01720163  RH  094%=      5-min Rain = 0
KCA1 250509Z 17006KT 17/16 A2993 RMK A01 T01720163  RH  094%=      5-min Rain = 0
KCA1 250510Z 18007KT 17/16 A2993 RMK A01 T01720163  RH  094%=      5-min Rain = 0
KCA1 250511Z 18010KT 17/16 A2993 RMK A01 T01720163  RH  094%=      5-min Rain = 0
KCA1 250512Z 19007KT 17/16 A2993 RMK A01 T01720163  RH  094%=      5-min Rain = 0
KCA1 250513Z 19010KT 17/16 A2993 RMK A01 T01720162  RH  094%=      5-min Rain = 0
KCA1 250514Z 17005KT 17/16 A2993 RMK A01 T01720162  RH  094%=      5-min Rain = 0
KCA1 250515Z 20006KT 17/16 A2993 RMK A01 T01720162  RH  094%=      5-min Rain = 0
KCA1 250516Z 19008KT 17/16 A2993 RMK A01 T01710162  RH  095%=      5-min Rain = 0
KCA1 250517Z 19008KT 17/16 A2993 RMK A01 T01710162  RH  095%=      5-min Rain = 0
KCA1 250518Z 20006KT 17/16 A2993 RMK A01 T01710162  RH  094%=      5-min Rain = 0
KCA1 250519Z 19008KT 17/16 A2993 RMK A01 T01710162  RH  094%=      5-min Rain = 0
KCA1 250520Z 18010KT 17/16 A2993 RMK A01 T01710162  RH  095%=      5-min Rain = 0
KCA1 250521Z 18010KT 17/16 A2993 RMK A01 T01710162  RH  095%=      5-min Rain = 0
KCA1 250522Z 18013KT 17/16 A2993 RMK A01 T01710162  RH  094%=      5-min Rain = 0
KCA1 250523Z 18009KT 17/16 A2993 RMK A01 T01720162  RH  094%=      5-min Rain = 0
KCA1 250524Z 19008KT 17/16 A2992 RMK A01 T01720162  RH  093%=      5-min Rain = 0
KCA1 250525Z 19009KT 17/16 A2992 RMK A01 T01730162  RH  093%=      5-min Rain = 0
KCA1 250526Z 20008KT 17/16 A2992 RMK A01 T01720162  RH  093%=      5-min Rain = 0
KCA1 250527Z 19009KT 17/16 A2992 RMK A01 T01720161  RH  093%=      5-min Rain = 0
KCA1 250528Z 19011KT 17/16 A2992 RMK A01 T01720161  RH  093%=      5-min Rain = 0
KCA1 250529Z 19012KT 17/16 A2992 RMK A01 T01720160  RH  093%=      5-min Rain = 0
KCA1 250530Z 20010KT 17/16 A2992 RMK A01 T01730160  RH  092%=      5-min Rain = 0
KCA1 250531Z 20009KT 17/16 A2992 RMK A01 T01740160  RH  091%=      5-min Rain = 0
KCA1 250532Z 19008KT 17/16 A2992 RMK A01 T01740160  RH  091%=      5-min Rain = 0
KCA1 250533Z 20010KT 17/16 A2991 RMK A01 T01740160  RH  092%=      5-min Rain = 0
KCA1 250534Z 18007KT 17/16 A2991 RMK A01 T01740160  RH  092%=      5-min Rain = 0
KCA1 250535Z 18009KT 17/16 A2992 RMK A01 T01730160  RH  092%=      5-min Rain = 0
KCA1 250536Z 18008KT 17/16 A2992 RMK A01 T01720160  RH  092%=      5-min Rain = 0
KCA1 250537Z 18010KT 17/16 A2992 RMK A01 T01720160  RH  093%=      5-min Rain = 0
KCA1 250538Z 19009KT 17/16 A2992 RMK A01 T01710160  RH  093%=      5-min Rain = 0
KCA1 250539Z 18009KT 17/16 A2991 RMK A01 T01710160  RH  093%=      5-min Rain = 0
KCA1 250540Z 18008KT 17/16 A2991 RMK A01 T01720160  RH  093%=      5-min Rain = 0
KCA1 250541Z 18009KT 17/16 A2991 RMK A01 T01710159  RH  093%=      5-min Rain = 0
KCA1 250542Z 18007KT 17/16 A2991 RMK A01 T01710159  RH  092%=      5-min Rain = 0
KCA1 250543Z 18006KT 17/16 A2991 RMK A01 T01710159  RH  092%=      5-min Rain = 0
KCA1 250544Z 19007KT 17/16 A2992 RMK A01 T01710159  RH  093%=      5-min Rain = 0
KCA1 250545Z 18008KT 17/16 A2992 RMK A01 T01710159  RH  093%=      5-min Rain = 0
KCA1 250546Z 17008KT 17/16 A2992 RMK A01 T01700159  RH  093%=      5-min Rain = 0
KCA1 250547Z 18007KT 17/16 A2992 RMK A01 T01700159  RH  093%=      5-min Rain = 0
KCA1 250548Z 18006KT 17/16 A2992 RMK A01 T01710159  RH  093%=      5-min Rain = 0
KCA1 250549Z 18009KT 17/16 A2992 RMK A01 T01710159  RH  093%=      5-min Rain = 0
KCA1 250550Z 18009KT 17/16 A2992 RMK A01 T01710159  RH  093%=      5-min Rain = 0
KCA1 250551Z 18007KT 17/16 A2992 RMK A01 T01710159  RH  093%=      5-min Rain = 0
KCA1 250552Z 18008KT 17/16 A2992 RMK A01 T01710159  RH  092%=      5-min Rain = 0
KCA1 250553Z 18006KT 17/16 A2992 RMK A01 T01720159  RH  092%=      5-min Rain = 0
KCA1 250554Z 19007KT 17/16 A2992 RMK A01 T01710159  RH  092%=      5-min Rain = 0
KCA1 250555Z 18007KT 17/16 A2992 RMK A01 T01710159  RH  092%=      5-min Rain = 0
KCA1 250556Z 19007KT 17/16 A2992 RMK A01 T01720159  RH  092%=      5-min Rain = 0
KCA1 250557Z 19006KT 17/16 A2992 RMK A01 T01710159  RH  092%=      5-min Rain = 0
KCA1 250558Z 19005KT 17/16 A2992 RMK A01 T01710159  RH  092%=      5-min Rain = 0
KCA1 250559Z 19006KT 17/16 A2992 RMK A01 T01710159  RH  093%=      5-min Rain = 0
KCA1 250600Z 19005KT 17/16 A2992 RMK A01 T01700159  RH  093%=      5-min Rain = 0
KCA1 250601Z 20006KT 17/16 A2992 RMK A01 T01690159  RH  093%=      5-min Rain = 0
KCA1 250602Z 19006KT 17/16 A2991 RMK A01 T01690158  RH  094%=      5-min Rain = 0
KCA1 250603Z 19006KT 17/16 A2991 RMK A01 T01700159  RH  093%=      5-min Rain = 0
KCA1 250604Z 19005KT 17/16 A2991 RMK A01 T01700158  RH  093%=      5-min Rain = 0
KCA1 250605Z 19007KT 17/16 A2991 RMK A01 T01700158  RH  093%=      5-min Rain = 0
KCA1 250606Z 19006KT 17/16 A2991 RMK A01 T01700158  RH  092%=      5-min Rain = 0
KCA1 250607Z 20006KT 17/16 A2991 RMK A01 T01710159  RH  092%=      5-min Rain = 0
KCA1 250608Z 20006KT 17/16 A2991 RMK A01 T01710159  RH  092%=      5-min Rain = 0
KCA1 250609Z 20004KT 17/16 A2991 RMK A01 T01710159  RH  093%=      5-min Rain = 0
KCA1 250610Z 21004KT 17/16 A2991 RMK A01 T01700159  RH  093%=      5-min Rain = 0
KCA1 250611Z 19004KT 17/16 A2991 RMK A01 T01690158  RH  093%=      5-min Rain = 0
KCA1 250612Z 20004KT 17/16 A2991 RMK A01 T01690158  RH  094%=      5-min Rain = 0
KCA1 250613Z 21003KT 17/16 A2991 RMK A01 T01690158  RH  094%=      5-min Rain = 0
KCA1 250614Z 20004KT 17/16 A2991 RMK A01 T01680158  RH  094%=      5-min Rain = 0
KCA1 250615Z 20005KT 17/16 A2991 RMK A01 T01680158  RH  094%=      5-min Rain = 0
KCA1 250616Z 19004KT 17/16 A2992 RMK A01 T01670158  RH  094%=      5-min Rain = 0
KCA1 250617Z 21004KT 17/16 A2992 RMK A01 T01670158  RH  095%=      5-min Rain = 0
KCA1 250618Z 22005KT 17/16 A2992 RMK A01 T01670158  RH  094%=      5-min Rain = 0
KCA1 250619Z 21004KT 17/16 A2992 RMK A01 T01680158  RH  094%=      5-min Rain = 0
KCA1 250620Z 20004KT 17/16 A2992 RMK A01 T01690158  RH  094%=      5-min Rain = 0
KCA1 250621Z 21003KT 17/16 A2992 RMK A01 T01680158  RH  094%=      5-min Rain = 0
KCA1 250622Z 22003KT 17/16 A2992 RMK A01 T01680158  RH  094%=      5-min Rain = 0
KCA1 250623Z 25003KT 17/16 A2992 RMK A01 T01680158  RH  094%=      5-min Rain = 0
KCA1 250624Z 23003KT 17/16 A2991 RMK A01 T01680157  RH  094%=      5-min Rain = 0
KCA1 250625Z 21004KT 17/16 A2992 RMK A01 T01680157  RH  093%=      5-min Rain = 0
KCA1 250626Z 24004KT 17/16 A2992 RMK A01 T01680157  RH  093%=      5-min Rain = 0
KCA1 250627Z 23003KT 17/16 A2991 RMK A01 T01680157  RH  093%=      5-min Rain = 0
KCA1 250628Z 23004KT 17/16 A2991 RMK A01 T01680157  RH  093%=      5-min Rain = 0
KCA1 250629Z 20004KT 17/16 A2991 RMK A01 T01690157  RH  093%=      5-min Rain = 0
KCA1 250630Z 23004KT 17/16 A2991 RMK A01 T01710157  RH  092%=      5-min Rain = 0
KCA1 250631Z 22003KT 17/16 A2991 RMK A01 T01720157  RH  091%=      5-min Rain = 0
KCA1 250632Z 21003KT 17/16 A2991 RMK A01 T01720157  RH  091%=      5-min Rain = 0
KCA1 250633Z 20003KT 17/16 A2991 RMK A01 T01710157  RH  091%=      5-min Rain = 0
KCA1 250634Z 21004KT 17/16 A2991 RMK A01 T01710157  RH  091%=      5-min Rain = 0
KCA1 250635Z 22005KT 17/16 A2991 RMK A01 T01710157  RH  091%=      5-min Rain = 0
KCA1 250636Z 22005KT 17/16 A2991 RMK A01 T01720155  RH  090%=      5-min Rain = 0
KCA1 250637Z 21004KT 17/16 A2991 RMK A01 T01730156  RH  090%=      5-min Rain = 0
KCA1 250638Z 22005KT 17/16 A2991 RMK A01 T01730156  RH  090%=      5-min Rain = 0
KCA1 250639Z 21004KT 17/16 A2991 RMK A01 T01730155  RH  089%=      5-min Rain = 0
KCA1 250640Z 24003KT 17/16 A2991 RMK A01 T01740155  RH  089%=      5-min Rain = 0
KCA1 250641Z 22004KT 17/16 A2991 RMK A01 T01740156  RH  089%=      5-min Rain = 0
KCA1 250642Z 21005KT 17/16 A2991 RMK A01 T01730155  RH  089%=      5-min Rain = 0
KCA1 250643Z 20004KT 17/16 A2991 RMK A01 T01730155  RH  089%=      5-min Rain = 0
KCA1 250644Z 22005KT 17/15 A2991 RMK A01 T01740154  RH  088%=      5-min Rain = 0
KCA1 250645Z 23005KT 18/16 A2991 RMK A01 T01750155  RH  088%=      5-min Rain = 0
KCA1 250646Z 23004KT 18/16 A2991 RMK A01 T01750155  RH  088%=      5-min Rain = 0
KCA1 250647Z 22004KT 17/16 A2991 RMK A01 T01740155  RH  089%=      5-min Rain = 0
KCA1 250648Z 22003KT 17/15 A2991 RMK A01 T01730154  RH  089%=      5-min Rain = 0
KCA1 250649Z 20002KT 17/15 A2991 RMK A01 T01730154  RH  089%=      5-min Rain = 0
KCA1 250650Z 24002KT 17/15 A2991 RMK A01 T01730154  RH  089%=      5-min Rain = 0
KCA1 250651Z 25001KT 17/15 A2991 RMK A01 T01730154  RH  089%=      5-min Rain = 0
KCA1 250652Z 23002KT 17/16 A2991 RMK A01 T01730155  RH  089%=      5-min Rain = 0
KCA1 250653Z 24002KT 17/15 A2991 RMK A01 T01730154  RH  089%=      5-min Rain = 0
KCA1 250654Z 23002KT 17/15 A2991 RMK A01 T01730154  RH  089%=      5-min Rain = 0
KCA1 250655Z 24002KT 17/15 A2991 RMK A01 T01730154  RH  089%=      5-min Rain = 0
KCA1 250656Z 26002KT 17/15 A2991 RMK A01 T01730154  RH  089%=      5-min Rain = 0
KCA1 250657Z 23001KT 17/15 A2991 RMK A01 T01730154  RH  088%=      5-min Rain = 0
KCA1 250658Z 28001KT 17/15 A2991 RMK A01 T01730154  RH  088%=      5-min Rain = 0
KCA1 250659Z 25001KT 17/15 A2991 RMK A01 T01730154  RH  088%=      5-min Rain = 0
KCA1 250700Z 27002KT 17/15 A2991 RMK A01 T01720153  RH  089%=      5-min Rain = 0
KCA1 250701Z 30001KT 17/15 A2991 RMK A01 T01720154  RH  089%=      5-min Rain = 0
KCA1 250702Z 30001KT 17/15 A2991 RMK A01 T01710154  RH  089%=      5-min Rain = 0
KCA1 250703Z 25002KT 17/15 A2991 RMK A01 T01720154  RH  089%=      5-min Rain = 0
KCA1 250704Z 25002KT 17/15 A2991 RMK A01 T01720154  RH  089%=      5-min Rain = 0
KCA1 250705Z 24002KT 17/15 A2991 RMK A01 T01730154  RH  089%=      5-min Rain = 0
KCA1 250706Z 25003KT 17/15 A2991 RMK A01 T01730154  RH  089%=      5-min Rain = 0
KCA1 250707Z 23005KT 17/16 A2991 RMK A01 T01740155  RH  089%=      5-min Rain = 0
KCA1 250708Z 22004KT 17/16 A2991 RMK A01 T01740155  RH  088%=      5-min Rain = 0
KCA1 250709Z 24003KT 18/16 A2991 RMK A01 T01760155  RH  087%=      5-min Rain = 0
KCA1 250710Z 26003KT 18/16 A2991 RMK A01 T01770155  RH  087%=      5-min Rain = 0
KCA1 250711Z 27002KT 18/16 A2991 RMK A01 T01770155  RH  087%=      5-min Rain = 0
KCA1 250712Z 26002KT 18/16 A2991 RMK A01 T01770155  RH  087%=      5-min Rain = 0
KCA1 250713Z 28002KT 18/16 A2991 RMK A01 T01760155  RH  087%=      5-min Rain = 0
KCA1 250714Z 25003KT 18/16 A2991 RMK A01 T01760155  RH  087%=      5-min Rain = 0
KCA1 250715Z 23004KT 18/16 A2991 RMK A01 T01770155  RH  087%=      5-min Rain = 0
KCA1 250716Z 25003KT 18/16 A2991 RMK A01 T01770156  RH  087%=      5-min Rain = 0
KCA1 250717Z 23006KT 18/16 A2992 RMK A01 T01780156  RH  087%=      5-min Rain = 0
KCA1 250718Z 21005KT 18/16 A2991 RMK A01 T01790157  RH  087%=      5-min Rain = 0
KCA1 250719Z 22007KT 18/16 A2992 RMK A01 T01810157  RH  086%=      5-min Rain = 0
KCA1 250720Z 26005KT 18/16 A2991 RMK A01 T01820158  RH  086%=      5-min Rain = 0
KCA1 250721Z 24003KT 18/16 A2991 RMK A01 T01830158  RH  085%=      5-min Rain = 0
KCA1 250722Z 21005KT 18/16 A2992 RMK A01 T01830158  RH  086%=      5-min Rain = 0
KCA1 250723Z 23003KT 18/16 A2992 RMK A01 T01820158  RH  086%=      5-min Rain = 0
KCA1 250724Z 29005KT 18/16 A2991 RMK A01 T01810158  RH  086%=      5-min Rain = 0
KCA1 250725Z 23004KT 18/16 A2991 RMK A01 T01820158  RH  086%=      5-min Rain = 0
KCA1 250726Z 22003KT 18/16 A2992 RMK A01 T01820158  RH  086%=      5-min Rain = 0
KCA1 250727Z 21004KT 18/16 A2991 RMK A01 T01830158  RH  086%=      5-min Rain = 0
KCA1 250728Z 23006KT 18/16 A2991 RMK A01 T01830158  RH  085%=      5-min Rain = 0
KCA1 250729Z 20004KT 18/16 A2991 RMK A01 T01830158  RH  085%=      5-min Rain = 0
KCA1 250730Z 19003KT 18/16 A2991 RMK A01 T01830158  RH  085%=      5-min Rain = 0
KCA1 250731Z 21004KT 18/16 A2991 RMK A01 T01830158  RH  085%=      5-min Rain = 0
KCA1 250732Z 19006KT 18/16 A2991 RMK A01 T01830159  RH  085%=      5-min Rain = 0
KCA1 250733Z 22005KT 18/16 A2991 RMK A01 T01830158  RH  085%=      5-min Rain = 0
KCA1 250734Z 19006KT 18/16 A2991 RMK A01 T01840159  RH  085%=      5-min Rain = 0
KCA1 250735Z 19007KT 19/16 A2991 RMK A01 T01850159  RH  085%=      5-min Rain = 0
KCA1 250736Z 19005KT 19/16 A2991 RMK A01 T01850159  RH  085%=      5-min Rain = 0
KCA1 250737Z 19004KT 18/16 A2991 RMK A01 T01840159  RH  085%=      5-min Rain = 0
KCA1 250738Z 19004KT 18/16 A2992 RMK A01 T01840160  RH  086%=      5-min Rain = 0
KCA1 250739Z 20004KT 18/16 A2991 RMK A01 T01830159  RH  086%=      5-min Rain = 0
KCA1 250740Z 19003KT 18/16 A2992 RMK A01 T01830160  RH  086%=      5-min Rain = 0
KCA1 250741Z 19003KT 18/16 A2991 RMK A01 T01830160  RH  086%=      5-min Rain = 0
KCA1 250742Z 20003KT 18/16 A2991 RMK A01 T01820160  RH  087%=      5-min Rain = 0
KCA1 250743Z 19003KT 18/16 A2991 RMK A01 T01830160  RH  087%=      5-min Rain = 0
KCA1 250744Z 17005KT 18/16 A2991 RMK A01 T01820160  RH  087%=      5-min Rain = 0
KCA1 250745Z 18004KT 18/16 A2991 RMK A01 T01830160  RH  087%=      5-min Rain = 0
KCA1 250746Z 18004KT 18/16 A2991 RMK A01 T01820160  RH  087%=      5-min Rain = 0
KCA1 250747Z 20004KT 18/16 A2991 RMK A01 T01820160  RH  087%=      5-min Rain = 0
KCA1 250748Z 19006KT 18/16 A2991 RMK A01 T01810161  RH  088%=      5-min Rain = 0
KCA1 250749Z 19007KT 18/16 A2991 RMK A01 T01820162  RH  088%=      5-min Rain = 0
KCA1 250750Z 17006KT 18/16 A2991 RMK A01 T01830162  RH  087%=      5-min Rain = 0
KCA1 250751Z 16005KT 18/16 A2991 RMK A01 T01840162  RH  087%=      5-min Rain = 0
KCA1 250752Z 18006KT 18/16 A2991 RMK A01 T01840162  RH  087%=      5-min Rain = 0
KCA1 250753Z 18005KT 18/16 A2991 RMK A01 T01840163  RH  087%=      5-min Rain = 0
KCA1 250754Z 18005KT 18/16 A2991 RMK A01 T01840163  RH  087%=      5-min Rain = 0
KCA1 250755Z 18005KT 18/16 A2991 RMK A01 T01840163  RH  088%=      5-min Rain = 0
KCA1 250756Z 19004KT 18/16 A2991 RMK A01 T01840163  RH  088%=      5-min Rain = 0
KCA1 250757Z 19007KT 18/16 A2991 RMK A01 T01840164  RH  088%=      5-min Rain = 0
KCA1 250758Z 18007KT 18/17 A2991 RMK A01 T01840165  RH  088%=      5-min Rain = 0
KCA1 250759Z 18008KT 19/17 A2991 RMK A01 T01850165  RH  088%=      5-min Rain = 0
KCA1 250800Z 17006KT 19/17 A2991 RMK A01 T01850165  RH  088%=      5-min Rain = 0
KCA1 250801Z 18005KT 19/17 A2991 RMK A01 T01860166  RH  088%=      5-min Rain = 0
KCA1 250802Z 19008KT 19/17 A2991 RMK A01 T01860166  RH  088%=      5-min Rain = 0
KCA1 250803Z 18007KT 19/17 A2991 RMK A01 T01860166  RH  088%=      5-min Rain = 0
KCA1 250804Z 17006KT 19/17 A2991 RMK A01 T01860166  RH  088%=      5-min Rain = 0
KCA1 250805Z 18007KT 19/17 A2991 RMK A01 T01860166  RH  088%=      5-min Rain = 0
KCA1 250806Z 18010KT 19/17 A2991 RMK A01 T01860167  RH  088%=      5-min Rain = 0
KCA1 250807Z 17009KT 19/17 A2991 RMK A01 T01870167  RH  088%=      5-min Rain = 0
KCA1 250808Z 17010KT 19/17 A2991 RMK A01 T01880167  RH  088%=      5-min Rain = 0
KCA1 250809Z 17009KT 19/17 A2991 RMK A01 T01880167  RH  088%=      5-min Rain = 0
KCA1 250810Z 17008KT 19/17 A2991 RMK A01 T01880167  RH  088%=      5-min Rain = 0
KCA1 250811Z 16008KT 19/17 A299 RMK A01 T01880167  RH  088%=      5-min Rain = 0
KCA1 250812Z 17008KT 19/17 A2991 RMK A01 T01880167  RH  088%=      5-min Rain = 0
KCA1 250813Z 17009KT 19/17 A2991 RMK A01 T01880168  RH  088%=      5-min Rain = 0
KCA1 250814Z 17007KT 19/17 A2991 RMK A01 T01880168  RH  088%=      5-min Rain = 0
KCA1 250815Z 16007KT 19/17 A2991 RMK A01 T01870168  RH  088%=      5-min Rain = 0
KCA1 250816Z 16006KT 19/17 A2991 RMK A01 T01870168  RH  088%=      5-min Rain = 0
KCA1 250817Z 16007KT 19/17 A2991 RMK A01 T01870168  RH  089%=      5-min Rain = 0
KCA1 250818Z 15006KT 19/17 A2991 RMK A01 T01860168  RH  089%=      5-min Rain = 0
KCA1 250819Z 16006KT 19/17 A2991 RMK A01 T01860168  RH  089%=      5-min Rain = 0
KCA1 250820Z 16006KT 19/17 A299 RMK A01 T01860168  RH  090%=      5-min Rain = 0
KCA1 250821Z 16007KT 19/17 A299 RMK A01 T01860168  RH  090%=      5-min Rain = 0
KCA1 250822Z 15007KT 19/17 A299 RMK A01 T01860169  RH  090%=      5-min Rain = 0
KCA1 250823Z 15007KT 19/17 A299 RMK A01 T01850168  RH  090%=      5-min Rain = 0
KCA1 250824Z 15007KT 19/17 A299 RMK A01 T01850168  RH  090%=      5-min Rain = 0
KCA1 250825Z 14007KT 19/17 A299 RMK A01 T01860169  RH  090%=      5-min Rain = 0
KCA1 250826Z 15008KT 19/17 A299 RMK A01 T01860169  RH  090%=      5-min Rain = 0
KCA1 250827Z 15005KT 19/17 A2991 RMK A01 T01860169  RH  090%=      5-min Rain = 0
KCA1 250828Z 15006KT 19/17 A2991 RMK A01 T01860169  RH  090%=      5-min Rain = 0
KCA1 250829Z 15006KT 19/17 A2991 RMK A01 T01860169  RH  090%=      5-min Rain = 0
KCA1 250830Z 15005KT 19/17 A2991 RMK A01 T01860169  RH  090%=      5-min Rain = 0
KCA1 250831Z 16006KT 19/17 A2991 RMK A01 T01850169  RH  090%=      5-min Rain = 0
KCA1 250832Z 14005KT 19/17 A2991 RMK A01 T01850170  RH  091%=      5-min Rain = 0
KCA1 250833Z 15005KT 19/17 A2991 RMK A01 T01850169  RH  091%=      5-min Rain = 0
KCA1 250834Z 15005KT 19/17 A2991 RMK A01 T01850170  RH  091%=      5-min Rain = 0
KCA1 250835Z 15007KT 19/17 A2991 RMK A01 T01850170  RH  091%=      5-min Rain = 0
KCA1 250836Z 15005KT 19/17 A2991 RMK A01 T01850170  RH  091%=      5-min Rain = 0
KCA1 250837Z 15004KT 19/17 A2991 RMK A01 T01850170  RH  091%=      5-min Rain = 0
KCA1 250838Z 13005KT 19/17 A2991 RMK A01 T01850169  RH  090%=      5-min Rain = 0
KCA1 250839Z 17004KT 19/17 A2991 RMK A01 T01850169  RH  091%=      5-min Rain = 0
KCA1 250840Z 15005KT 19/17 A2991 RMK A01 T01860170  RH  090%=      5-min Rain = 0
KCA1 250841Z 14005KT 19/17 A2991 RMK A01 T01860170  RH  090%=      5-min Rain = 0
KCA1 250842Z 15005KT 19/17 A2991 RMK A01 T01860170  RH  090%=      5-min Rain = 0
KCA1 250843Z 15006KT 19/17 A2991 RMK A01 T01860170  RH  090%=      5-min Rain = 0
KCA1 250844Z 14003KT 19/17 A2991 RMK A01 T01870170  RH  090%=      5-min Rain = 0
KCA1 250845Z 14004KT 19/17 A2991 RMK A01 T01870171  RH  090%=      5-min Rain = 0
KCA1 250846Z 15004KT 19/17 A2991 RMK A01 T01870170  RH  090%=      5-min Rain = 0
KCA1 250847Z 14004KT 19/17 A2991 RMK A01 T01870171  RH  090%=      5-min Rain = 0
KCA1 250848Z 15006KT 19/17 A2991 RMK A01 T01870171  RH  090%=      5-min Rain = 0
KCA1 250849Z 14005KT 19/17 A2992 RMK A01 T01870171  RH  090%=      5-min Rain = 0
KCA1 250850Z 13005KT 19/17 A2992 RMK A01 T01880171  RH  090%=      5-min Rain = 0
KCA1 250851Z 14003KT 19/17 A2992 RMK A01 T01880171  RH  090%=      5-min Rain = 0
KCA1 250852Z 15002KT 19/17 A2992 RMK A01 T01880171  RH  090%=      5-min Rain = 0
KCA1 250853Z 15004KT 19/17 A2992 RMK A01 T01880171  RH  090%=      5-min Rain = 0
KCA1 250854Z 16005KT 19/17 A2992 RMK A01 T01880171  RH  090%=      5-min Rain = 0
KCA1 250855Z 15005KT 19/17 A2992 RMK A01 T01880172  RH  090%=      5-min Rain = 0
KCA1 250856Z 15003KT 19/17 A2992 RMK A01 T01880171  RH  090%=      5-min Rain = 0
KCA1 250857Z 15004KT 19/17 A2992 RMK A01 T01880171  RH  090%=      5-min Rain = 0
KCA1 250858Z 15005KT 19/17 A2992 RMK A01 T01890172  RH  090%=      5-min Rain = 0
KCA1 250859Z 15006KT 19/17 A2992 RMK A01 T01880171  RH  090%=      5-min Rain = 0
KCA1 250900Z 16005KT 19/17 A2992 RMK A01 T01880172  RH  090%=      5-min Rain = 0
KCA1 250901Z 13004KT 19/17 A2992 RMK A01 T01880172  RH  090%=      5-min Rain = 0
KCA1 250902Z 14005KT 19/17 A2992 RMK A01 T01880172  RH  090%=      5-min Rain = 0
KCA1 250903Z 15008KT 19/17 A2992 RMK A01 T01880171  RH  090%=      5-min Rain = 0
KCA1 250904Z 14009KT 19/17 A2992 RMK A01 T01880171  RH  090%=      5-min Rain = 0
KCA1 250905Z 13007KT 19/17 A2992 RMK A01 T01890171  RH  089%=      5-min Rain = 0
KCA1 250906Z 13006KT 19/17 A2992 RMK A01 T01890171  RH  089%=      5-min Rain = 0
KCA1 250907Z 12007KT 19/17 A2992 RMK A01 T01890172  RH  090%=      5-min Rain = 0
KCA1 250908Z 12008KT 19/17 A2992 RMK A01 T01890172  RH  090%=      5-min Rain = 0
KCA1 250909Z 14005KT 19/17 A2992 RMK A01 T01890171  RH  089%=      5-min Rain = 0
KCA1 250910Z 13007KT 19/17 A2992 RMK A01 T01890171  RH  089%=      5-min Rain = 0
KCA1 250911Z 13007KT 19/17 A2992 RMK A01 T01890171  RH  089%=      5-min Rain = 0
KCA1 250912Z 13009KT 19/17 A2992 RMK A01 T01890171  RH  089%=      5-min Rain = 0
KCA1 250913Z 14008KT 19/17 A2992 RMK A01 T01890171  RH  089%=      5-min Rain = 0
KCA1 250914Z 14007KT 19/17 A2992 RMK A01 T01890171  RH  089%=      5-min Rain = 0
KCA1 250915Z 14007KT 19/17 A2992 RMK A01 T01890171  RH  090%=      5-min Rain = 0
KCA1 250916Z 13007KT 19/17 A2992 RMK A01 T01890172  RH  090%=      5-min Rain = 0
KCA1 250917Z 14007KT 19/17 A2992 RMK A01 T01890172  RH  090%=      5-min Rain = 0
KCA1 250918Z 14007KT 19/17 A2992 RMK A01 T01890172  RH  090%=      5-min Rain = 0
KCA1 250919Z 14007KT 19/17 A2992 RMK A01 T01890172  RH  090%=      5-min Rain = 0
KCA1 250920Z 13005KT 19/17 A2992 RMK A01 T01890172  RH  090%=      5-min Rain = 0
KCA1 250921Z 13007KT 19/17 A2992 RMK A01 T01890172  RH  090%=      5-min Rain = 0
KCA1 250922Z 14007KT 19/17 A2992 RMK A01 T01880172  RH  090%=      5-min Rain = 0
KCA1 250923Z 14006KT 19/17 A2992 RMK A01 T01890172  RH  090%=      5-min Rain = 0
KCA1 250924Z 13006KT 19/17 A2992 RMK A01 T01880172  RH  090%=      5-min Rain = 0
KCA1 250925Z 14008KT 19/17 A2992 RMK A01 T01890172  RH  090%=      5-min Rain = 0
KCA1 250926Z 14006KT 19/17 A2992 RMK A01 T01890172  RH  090%=      5-min Rain = 0
KCA1 250927Z 15008KT 19/17 A2992 RMK A01 T01890173  RH  090%=      5-min Rain = 0
KCA1 250928Z 15008KT 19/17 A2992 RMK A01 T01890173  RH  090%=      5-min Rain = 0
KCA1 250929Z 14006KT 19/17 A2992 RMK A01 T01880172  RH  090%=      5-min Rain = 0
KCA1 250930Z 15006KT 19/17 A2992 RMK A01 T01880173  RH  091%=      5-min Rain = 0
KCA1 250931Z 14008KT 19/17 A2992 RMK A01 T01880173  RH  091%=      5-min Rain = 0
KCA1 250932Z 14005KT 19/17 A2992 RMK A01 T01880173  RH  091%=      5-min Rain = 0
KCA1 250933Z 14009KT 19/17 A2992 RMK A01 T01880173  RH  091%=      5-min Rain = 0
KCA1 250934Z 14009KT 19/17 A2992 RMK A01 T01890172  RH  090%=      5-min Rain = 0
KCA1 250935Z 14008KT 19/17 A2992 RMK A01 T01890172  RH  090%=      5-min Rain = 0
KCA1 250936Z 14008KT 19/17 A2992 RMK A01 T01890173  RH  090%=      5-min Rain = 0
KCA1 250937Z 14009KT 19/17 A2992 RMK A01 T01890173  RH  090%=      5-min Rain = 0
KCA1 250938Z 15007KT 19/17 A2992 RMK A01 T01890172  RH  090%=      5-min Rain = 0
KCA1 250939Z 14010KT 19/17 A2992 RMK A01 T01890173  RH  090%=      5-min Rain = 0
KCA1 250940Z 14010KT 19/17 A2992 RMK A01 T01880172  RH  090%=      5-min Rain = 0
KCA1 250941Z 15009KT 19/17 A2992 RMK A01 T01880172  RH  090%=      5-min Rain = 0
KCA1 250942Z 14009KT 19/17 A2993 RMK A01 T01890173  RH  090%=      5-min Rain = 0
KCA1 250943Z 15008KT 19/17 A2992 RMK A01 T01880172  RH  090%=      5-min Rain = 0
KCA1 250944Z 15008KT 19/17 A2992 RMK A01 T01880172  RH  090%=      5-min Rain = 0
KCA1 250945Z 14008KT 19/17 A2992 RMK A01 T01890173  RH  090%=      5-min Rain = 0
KCA1 250946Z 13010KT 19/17 A2993 RMK A01 T01880173  RH  091%=      5-min Rain = 0
KCA1 250947Z 15010KT 19/17 A2992 RMK A01 T01880173  RH  091%=      5-min Rain = 0
KCA1 250948Z 14008KT 19/17 A2993 RMK A01 T01880172  RH  091%=      5-min Rain = 0
KCA1 250949Z 13008KT 19/17 A2993 RMK A01 T01880172  RH  090%=      5-min Rain = 0
KCA1 250950Z 14008KT 19/17 A2993 RMK A01 T01880172  RH  090%=      5-min Rain = 0
KCA1 250951Z 14007KT 19/17 A2993 RMK A01 T01880172  RH  091%=      5-min Rain = 0
KCA1 250952Z 13008KT 19/17 A2993 RMK A01 T01880173  RH  091%=      5-min Rain = 0
KCA1 250953Z 13008KT 19/17 A2993 RMK A01 T01880172  RH  091%=      5-min Rain = 0
KCA1 250954Z 12008KT 19/17 A2993 RMK A01 T01880172  RH  091%=      5-min Rain = 0
KCA1 250955Z 12009KT 19/17 A2993 RMK A01 T01880173  RH  091%=      5-min Rain = 0
KCA1 250956Z 13008KT 19/17 A2993 RMK A01 T01880173  RH  091%=      5-min Rain = 0
KCA1 250957Z 16009KT 19/17 A2993 RMK A01 T01880173  RH  091%=      5-min Rain = 0
KCA1 250958Z 14007KT 19/17 A2993 RMK A01 T01880173  RH  091%=      5-min Rain = 0
KCA1 250959Z 13008KT 19/17 A2993 RMK A01 T01880173  RH  091%=      5-min Rain = 0
KCA1 251000Z 13010KT 19/17 A2992 RMK A01 T01870172  RH  091%=      5-min Rain = 0
KCA1 251001Z 14010KT 19/17 A2992 RMK A01 T01880173  RH  091%=      5-min Rain = 0
KCA1 251002Z 14011KT 19/17 A2992 RMK A01 T01870173  RH  091%=      5-min Rain = 0
KCA1 251003Z 15009KT 19/17 A2993 RMK A01 T01870173  RH  091%=      5-min Rain = 0
KCA1 251004Z 14010KT 19/17 A2992 RMK A01 T01870172  RH  091%=      5-min Rain = 0
KCA1 251005Z 15009KT 19/17 A2992 RMK A01 T01870172  RH  091%=      5-min Rain = 0
KCA1 251006Z 14008KT 19/17 A2992 RMK A01 T01870173  RH  091%=      5-min Rain = 0
KCA1 251007Z 13011KT 19/17 A2992 RMK A01 T01870173  RH  092%=      5-min Rain = 0
KCA1 251008Z 14011KT 19/17 A2992 RMK A01 T01870173  RH  092%=      5-min Rain = 0
KCA1 251009Z 14011KT 19/17 A2992 RMK A01 T01870173  RH  092%=      5-min Rain = 0
KCA1 251010Z 14012KT 19/17 A2992 RMK A01 T01860173  RH  092%=      5-min Rain = 0
KCA1 251011Z 15012KT 19/17 A2992 RMK A01 T01860172  RH  092%=      5-min Rain = 0
KCA1 251012Z 15012KT 19/17 A2992 RMK A01 T01870173  RH  092%=      5-min Rain = 0
KCA1 251013Z 15012KT 19/17 A2992 RMK A01 T01870173  RH  092%=      5-min Rain = 0
KCA1 251014Z 15012G18KT 19/17 A2992 RMK A01 T01870173  RH  092%=      5-min Rain = 0
KCA1 251015Z 16013G18KT 19/17 A2992 RMK A01 T01870173  RH  092%=      5-min Rain = 0
KCA1 251016Z 16014KT 19/17 A2992 RMK A01 T01870173  RH  092%=      5-min Rain = 0
KCA1 251017Z 16013KT 19/17 A2992 RMK A01 T01870173  RH  092%=      5-min Rain = 0
KCA1 251018Z 16012KT 19/17 A2992 RMK A01 T01870173  RH  092%=      5-min Rain = 0
KCA1 251019Z 17012KT 19/17 A2992 RMK A01 T01870173  RH  092%=      5-min Rain = 0
KCA1 251020Z 16011KT 19/17 A2992 RMK A01 T01860173  RH  092%=      5-min Rain = 0
KCA1 251021Z 16011KT 19/17 A2992 RMK A01 T01860174  RH  093%=      5-min Rain = 0
KCA1 251022Z 16014KT 19/17 A2992 RMK A01 T01860174  RH  093%=      5-min Rain = 0
KCA1 251023Z 16014KT 19/17 A2992 RMK A01 T01850174  RH  093%=      5-min Rain = 0
KCA1 251024Z 16016KT 19/17 A2992 RMK A01 T01860174  RH  093%=      5-min Rain = 0
KCA1 251025Z 17015KT 19/17 A2992 RMK A01 T01860174  RH  093%=      5-min Rain = 0
KCA1 251026Z 16013KT 19/17 A2992 RMK A01 T01860174  RH  093%=      5-min Rain = 0
KCA1 251027Z 16016KT 19/17 A2992 RMK A01 T01860174  RH  093%=      5-min Rain = 0
KCA1 251028Z 16014KT 19/17 A2992 RMK A01 T01860174  RH  093%=      5-min Rain = 0
KCA1 251029Z 16014KT 19/17 A2992 RMK A01 T01860174  RH  093%=      5-min Rain = 0
KCA1 251030Z 17015KT 19/17 A2992 RMK A01 T01860174  RH  093%=      5-min Rain = 0
KCA1 251031Z 17014KT 19/17 A2992 RMK A01 T01860174  RH  093%=      5-min Rain = 0
KCA1 251032Z 16014KT 19/17 A2992 RMK A01 T01860174  RH  093%=      5-min Rain = 0
KCA1 251033Z 16014KT 19/17 A2993 RMK A01 T01860174  RH  093%=      5-min Rain = 0
KCA1 251034Z 16011KT 19/17 A2993 RMK A01 T01860174  RH  093%=      5-min Rain = 0
KCA1 251035Z 16014KT 19/18 A2993 RMK A01 T01860175  RH  093%=      5-min Rain = 0
KCA1 251036Z 16014KT 19/18 A2993 RMK A01 T01860175  RH  093%=      5-min Rain = 0
KCA1 251037Z 16013KT 19/18 A2993 RMK A01 T01860175  RH  093%=      5-min Rain = 0
KCA1 251038Z 16014KT 19/17 A2993 RMK A01 T01850174  RH  093%=      5-min Rain = 0
KCA1 251039Z 15012KT 19/18 A2993 RMK A01 T01860175  RH  093%=      5-min Rain = 0
KCA1 251040Z 15012KT 19/18 A2993 RMK A01 T01860175  RH  093%=      5-min Rain = 0
KCA1 251041Z 15012KT 19/18 A2993 RMK A01 T01860175  RH  093%=      5-min Rain = 0
KCA1 251042Z 16010KT 19/18 A2993 RMK A01 T01860175  RH  093%=      5-min Rain = 0
KCA1 251043Z 16014KT 19/18 A2993 RMK A01 T01860175  RH  094%=      5-min Rain = 0
KCA1 251044Z 16012KT 19/18 A2993 RMK A01 T01860175  RH  094%=      5-min Rain = 0
KCA1 251045Z 16012KT 19/18 A2993 RMK A01 T01850175  RH  094%=      5-min Rain = 0
KCA1 251046Z 16011KT 19/18 A2993 RMK A01 T01860176  RH  094%=      5-min Rain = 0
KCA1 251047Z 16011KT 19/18 A2993 RMK A01 T01850175  RH  094%=      5-min Rain = 0
KCA1 251048Z 16014KT 19/18 A2993 RMK A01 T01850175  RH  094%=      5-min Rain = 0
KCA1 251049Z 17014KT 19/18 A2993 RMK A01 T01850176  RH  094%=      5-min Rain = 0
KCA1 251050Z 16011KT 19/18 A2993 RMK A01 T01850175  RH  094%=      5-min Rain = 0
KCA1 251051Z 16014G19KT 19/18 A2993 RMK A01 T01860176  RH  094%=      5-min Rain = 0
KCA1 251052Z 16014KT 19/18 A2993 RMK A01 T01860176  RH  094%=      5-min Rain = 0
KCA1 251053Z 15012KT 19/18 A2993 RMK A01 T01860175  RH  094%=      5-min Rain = 0
KCA1 251054Z 16014KT 19/18 A2993 RMK A01 T01860175  RH  094%=      5-min Rain = 0
KCA1 251055Z 15013KT 19/18 A2993 RMK A01 T01860176  RH  094%=      5-min Rain = 0
KCA1 251056Z 16013KT 19/18 A2993 RMK A01 T01860176  RH  094%=      5-min Rain = 0
KCA1 251057Z 17014G19KT 19/18 A2993 RMK A01 T01860176  RH  094%=      5-min Rain = 0
KCA1 251058Z 17012KT 19/18 A2993 RMK A01 T01860176  RH  094%=      5-min Rain = 0
KCA1 251059Z 16012G19KT 19/18 A2993 RMK A01 T01860176  RH  094%=      5-min Rain = 0
KCA1 251100Z 16016KT 19/18 A2993 RMK A01 T01860176  RH  094%=      5-min Rain = 0
KCA1 251101Z 16014KT 19/18 A2993 RMK A01 T01860176  RH  094%=      5-min Rain = 0
KCA1 251102Z 17012KT 19/18 A2993 RMK A01 T01860176  RH  094%=      5-min Rain = 0
KCA1 251103Z 17014KT 19/18 A2993 RMK A01 T01860176  RH  094%=      5-min Rain = 0
KCA1 251104Z 16013KT 19/18 A2993 RMK A01 T01860177  RH  094%=      5-min Rain = 0
KCA1 251105Z 16013KT 19/18 A2993 RMK A01 T01860176  RH  094%=      5-min Rain = 0
KCA1 251106Z 16013KT 19/18 A2993 RMK A01 T01860176  RH  094%=      5-min Rain = 0
KCA1 251107Z 16014KT 19/18 A2993 RMK A01 T01860177  RH  094%=      5-min Rain = 0
KCA1 251108Z 15013KT 19/18 A2993 RMK A01 T01860177  RH  094%=      5-min Rain = 0
KCA1 251109Z 15012KT 19/18 A2993 RMK A01 T01860177  RH  095%=      5-min Rain = 0
KCA1 251110Z 16013KT 19/18 A2993 RMK A01 T01850177  RH  095%=      5-min Rain = 0
KCA1 251111Z 16016KT 19/18 A2993 RMK A01 T01850177  RH  095%=      5-min Rain = 0
KCA1 251112Z 16013KT 19/18 A2993 RMK A01 T01850177  RH  095%=      5-min Rain = 0
KCA1 251113Z 16013KT 19/18 A2993 RMK A01 T01850177  RH  095%=      5-min Rain = 0
KCA1 251114Z 16013KT 19/18 A2993 RMK A01 T01850177  RH  095%=      5-min Rain = 0
KCA1 251115Z 15016KT 19/18 A2993 RMK A01 T01850178  RH  096%=      5-min Rain = 0
KCA1 251116Z 16013KT 19/18 A2993 RMK A01 T01850178  RH  096%=      5-min Rain = 0
KCA1 251117Z 16011KT 19/18 A2993 RMK A01 T01850177  RH  096%=      5-min Rain = 0
KCA1 251118Z 15012KT 19/18 A2993 RMK A01 T01850178  RH  096%=      5-min Rain = 0
KCA1 251119Z 15011KT 19/18 A2993 RMK A01 T01850178  RH  096%=      5-min Rain = 0
KCA1 251120Z 15015KT 18/18 A2994 RMK A01 T01840178  RH  096%=      5-min Rain = 0
KCA1 251121Z 15012G17KT 18/18 A2994 RMK A01 T01840178  RH  096%=      5-min Rain = 0
KCA1 251122Z 15014KT 18/18 A2994 RMK A01 T01840178  RH  096%=      5-min Rain = 0
KCA1 251123Z 16013KT 18/18 A2994 RMK A01 T01840178  RH  096%=      5-min Rain = 0
KCA1 251124Z 16013KT 18/18 A2994 RMK A01 T01840178  RH  096%=      5-min Rain = 0
KCA1 251125Z 15012KT 18/18 A2994 RMK A01 T01840179  RH  096%=      5-min Rain = 0
KCA1 251126Z 15010KT 18/18 A2994 RMK A01 T01840179  RH  096%=      5-min Rain = 0
KCA1 251127Z 15013KT 18/18 A2994 RMK A01 T01840179  RH  096%=      5-min Rain = 0
KCA1 251128Z 16013KT 18/18 A2994 RMK A01 T01840179  RH  097%=      5-min Rain = 0
KCA1 251129Z 16011KT 18/18 A2994 RMK A01 T01840179  RH  097%=      5-min Rain = 0
KCA1 251130Z 15013KT 18/18 A2994 RMK A01 T01840179  RH  097%=      5-min Rain = 0
KCA1 251131Z 15010KT 18/18 A2994 RMK A01 T01840178  RH  097%=      5-min Rain = 0
KCA1 251132Z 16011KT 18/18 A2994 RMK A01 T01840179  RH  097%=      5-min Rain = 0
KCA1 251133Z 15010KT 18/18 A2994 RMK A01 T01840179  RH  097%=      5-min Rain = 0
KCA1 251134Z 15011KT 18/18 A2994 RMK A01 T01840179  RH  097%=      5-min Rain = 0
KCA1 251135Z 15011KT 18/18 A2995 RMK A01 T01840179  RH  097%=      5-min Rain = 0
KCA1 251136Z 15009KT 18/18 A2995 RMK A01 T01840179  RH  097%=      5-min Rain = 0
KCA1 251137Z 15010KT 18/18 A2995 RMK A01 T01840179  RH  097%=      5-min Rain = 0
KCA1 251138Z 16009KT 18/18 A2995 RMK A01 T01830179  RH  097%=      5-min Rain = 0
KCA1 251139Z 15009KT 18/18 A2994 RMK A01 T01840180  RH  098%=      5-min Rain = 0
KCA1 251140Z 16011KT 18/18 A2994 RMK A01 T01830180  RH  098%=      5-min Rain = 0
KCA1 251141Z 16011KT 18/18 A2994 RMK A01 T01830180  RH  098%=      5-min Rain = 0
KCA1 251142Z 17012KT 18/18 A2994 RMK A01 T01830180  RH  098%=      5-min Rain = 0
KCA1 251143Z 18013KT 18/18 A2994 RMK A01 T01830179  RH  098%=      5-min Rain = 0
KCA1 251144Z 16013KT 18/18 A2994 RMK A01 T01830180  RH  098%=      5-min Rain = 0
KCA1 251145Z 17014KT 18/18 A2994 RMK A01 T01830180  RH  098%=      5-min Rain = 0
KCA1 251146Z 16014KT 18/18 A2994 RMK A01 T01830180  RH  098%=      5-min Rain = 0
KCA1 251147Z 16016KT 18/18 A2994 RMK A01 T01830180  RH  098%=      5-min Rain = 0
KCA1 251148Z 17016KT 18/18 A2994 RMK A01 T01830180  RH  098%=      5-min Rain = 0
KCA1 251149Z 17017KT 18/18 A2994 RMK A01 T01830180  RH  098%=      5-min Rain = 0
KCA1 251150Z 16017KT 18/18 A2994 RMK A01 T01830180  RH  098%=      5-min Rain = 0
KCA1 251151Z 17015KT 18/18 A2995 RMK A01 T01830180  RH  098%=      5-min Rain = 0
KCA1 251152Z 17017KT 18/18 A2995 RMK A01 T01830180  RH  098%=      5-min Rain = 0
KCA1 251153Z 17014KT 18/18 A2995 RMK A01 T01830180  RH  098%=      5-min Rain = 0
KCA1 251154Z 16011KT 18/18 A2995 RMK A01 T01830180  RH  098%=      5-min Rain = 0
KCA1 251155Z 15011KT 18/18 A2995 RMK A01 T01830180  RH  098%=      5-min Rain = 0
KCA1 251156Z 16014KT 18/18 A2995 RMK A01 T01830180  RH  098%=      5-min Rain = 0
KCA1 251157Z 16014KT 18/18 A2995 RMK A01 T01820180  RH  099%=      5-min Rain = 0
KCA1 251158Z 16015KT 18/18 A2995 RMK A01 T01820180  RH  099%=      5-min Rain = 0
KCA1 251159Z 17014KT 18/18 A2995 RMK A01 T01820180  RH  099%=      5-min Rain = 0
KCA1 251200Z 16012KT 18/18 A2995 RMK A01 T01820180  RH  099%=      5-min Rain = 0
KCA1 251201Z 16013KT 18/18 A2995 RMK A01 T01820180  RH  099%=      5-min Rain = 0
KCA1 251202Z 16013KT 18/18 A2995 RMK A01 T01820180  RH  099%=      5-min Rain = 0
KCA1 251203Z 16013KT 18/18 A2995 RMK A01 T01810180  RH  099%=      5-min Rain = 0
KCA1 251204Z 17012KT 18/18 A2995 RMK A01 T01810180  RH  099%=      5-min Rain = 0
KCA1 251205Z 17012KT 18/18 A2995 RMK A01 T01810180  RH  099%=      5-min Rain = 0
KCA1 251206Z 17015G20KT 18/18 A2995 RMK A01 T01810180  RH  099%=      5-min Rain = 0
KCA1 251207Z 18014KT 18/18 A2995 RMK A01 T01810180  RH  099%=      5-min Rain = 0
KCA1 251208Z 16013KT 18/18 A2995 RMK A01 T01810180  RH  099%=      5-min Rain = 0
KCA1 251209Z 17013KT 18/18 A2995 RMK A01 T01810180  RH  099%=      5-min Rain = 0
KCA1 251210Z 17014KT 18/18 A2995 RMK A01 T01810180  RH  099%=      5-min Rain = 0
KCA1 251211Z 17015KT 18/18 A2995 RMK A01 T01810180  RH  099%=      5-min Rain = 0
KCA1 251212Z 17013G18KT 18/18 A2995 RMK A01 T01810180  RH  099%=      5-min Rain = 0
KCA1 251213Z 16011KT 18/18 A2995 RMK A01 T01810180  RH  099%=      5-min Rain = 0
KCA1 251214Z 18013KT 18/18 A2995 RMK A01 T01810180  RH  099%=      5-min Rain = 0
KCA1 251215Z 18013KT 18/18 A2995 RMK A01 T01810180  RH  099%=      5-min Rain = 0
KCA1 251216Z 17012KT 18/18 A2995 RMK A01 T01810180  RH  100%=      5-min Rain = 0
KCA1 251217Z 18015KT 18/18 A2995 RMK A01 T01810181  RH  100%=      5-min Rain = 0
KCA1 251218Z 18014KT 18/18 A2995 RMK A01 T01810180  RH  100%=      5-min Rain = 0
KCA1 251219Z 17011G16KT 18/18 A2995 RMK A01 T01810180  RH  100%=      5-min Rain = 0
KCA1 251220Z 17013KT 18/18 A2995 RMK A01 T01810181  RH  100%=      5-min Rain = 0
KCA1 251221Z 18014KT 18/18 A2995 RMK A01 T01810181  RH  100%=      5-min Rain = 0
KCA1 251222Z 18013KT 18/18 A2995 RMK A01 T01810181  RH  100%=      5-min Rain = 0
KCA1 251223Z 18011KT 18/18 A2995 RMK A01 T01810181  RH  100%=      5-min Rain = 0
KCA1 251224Z 18010KT 18/18 A2995 RMK A01 T01810181  RH  100%=      5-min Rain = 0
KCA1 251225Z 17010KT 18/18 A2995 RMK A01 T01810181  RH  100%=      5-min Rain = 0
KCA1 251226Z 18012KT 18/18 A2995 RMK A01 T01810181  RH  100%=      5-min Rain = 0
KCA1 251227Z 17011KT 18/18 A2995 RMK A01 T01810181  RH  100%=      5-min Rain = 0
KCA1 251228Z 18012KT 18/18 A2995 RMK A01 T01810181  RH  100%=      5-min Rain = 0
KCA1 251229Z 18012KT 18/18 A2995 RMK A01 T01810181  RH  100%=      5-min Rain = 0
KCA1 251230Z 17013KT 18/18 A2995 RMK A01 T01800181  RH  100%=      5-min Rain = 0
KCA1 251231Z 18014KT 18/18 A2995 RMK A01 T01810181  RH  100%=      5-min Rain = 0
KCA1 251232Z 18011KT 18/18 A2995 RMK A01 T01810181  RH  100%=      5-min Rain = 0
KCA1 251233Z 17010KT 18/18 A2995 RMK A01 T01810181  RH  100%=      5-min Rain = 0
KCA1 251234Z 18013KT 18/18 A2995 RMK A01 T01810181  RH  100%=      5-min Rain = 0
KCA1 251235Z 18013KT 18/18 A2995 RMK A01 T01810181  RH  100%=      5-min Rain = 0
KCA1 251236Z 18011KT 18/18 A2995 RMK A01 T01810181  RH  100%=      5-min Rain = 0
KCA1 251237Z 17011KT 18/18 A2995 RMK A01 T01810181  RH  100%=      5-min Rain = 0
KCA1 251238Z 18011KT 18/18 A2995 RMK A01 T01810181  RH  100%=      5-min Rain = 0
KCA1 251239Z 18013KT 18/18 A2995 RMK A01 T01810181  RH  100%=      5-min Rain = 0
KCA1 251240Z 18014KT 18/18 A2995 RMK A01 T01810181  RH  100%=      5-min Rain = 0
KCA1 251241Z 18013KT 18/18 A2995 RMK A01 T01810181  RH  100%=      5-min Rain = 0
KCA1 251242Z 17012KT 18/18 A2995 RMK A01 T01810181  RH  100%=      5-min Rain = 0
KCA1 251243Z 18012KT 18/18 A2995 RMK A01 T01810181  RH  100%=      5-min Rain = 0
KCA1 251244Z 17011KT 18/18 A2995 RMK A01 T01810181  RH  100%=      5-min Rain = 0
KCA1 251245Z 19013KT 18/18 A2995 RMK A01 T01820182  RH  100%=      5-min Rain = 0
KCA1 251246Z 18014KT 18/18 A2995 RMK A01 T01820182  RH  100%=      5-min Rain = 0
KCA1 251247Z 18012KT 18/18 A2995 RMK A01 T01820182  RH  100%=      5-min Rain = 0
KCA1 251248Z 18012KT 18/18 A2995 RMK A01 T01820182  RH  100%=      5-min Rain = 0
KCA1 251249Z 17012KT 18/18 A2995 RMK A01 T01820182  RH  100%=      5-min Rain = 0
KCA1 251250Z 17011KT 18/18 A2996 RMK A01 T01820182  RH  100%=      5-min Rain = 0
KCA1 251251Z 17013G18KT 18/18 A2995 RMK A01 T01820183  RH  100%=      5-min Rain = 0
KCA1 251252Z 18013KT 18/18 A2996 RMK A01 T01830183  RH  100%=      5-min Rain = 0
KCA1 251253Z 18014KT 18/18 A2995 RMK A01 T01820183  RH  100%=      5-min Rain = 0
KCA1 251254Z 18013KT 18/18 A2995 RMK A01 T01820183  RH  100%=      5-min Rain = 0
KCA1 251255Z 17013KT 18/18 A2996 RMK A01 T01820183  RH  100%=      5-min Rain = 0
KCA1 251256Z 18013KT 18/18 A2996 RMK A01 T01830183  RH  100%=      5-min Rain = 0
KCA1 251257Z 18012KT 18/18 A2996 RMK A01 T01830183  RH  100%=      5-min Rain = 0
KCA1 251258Z 18010KT 18/18 A2996 RMK A01 T01830183  RH  100%=      5-min Rain = 0
KCA1 251259Z 17012KT 18/18 A2996 RMK A01 T01830183  RH  100%=      5-min Rain = 0
KCA1 251300Z 17012KT 18/18 A2996 RMK A01 T01830184  RH  100%=      5-min Rain = 0
KCA1 251301Z 18013KT 18/18 A2996 RMK A01 T01840184  RH  100%=      5-min Rain = 0
KCA1 251302Z 17010KT 18/18 A2996 RMK A01 T01840184  RH  100%=      5-min Rain = 0
KCA1 251303Z 18011KT 18/18 A2996 RMK A01 T01840184  RH  100%=      5-min Rain = 0
KCA1 251304Z 18009KT 18/18 A2996 RMK A01 T01840184  RH  100%=      5-min Rain = 0
KCA1 251305Z 18010KT 18/18 A2996 RMK A01 T01840184  RH  100%=      5-min Rain = 0
KCA1 251306Z 18016KT 18/18 A2996 RMK A01 T01840184  RH  100%=      5-min Rain = 0
KCA1 251307Z 19015KT 18/18 A2996 RMK A01 T01840184  RH  100%=      5-min Rain = 0
KCA1 251308Z 18014KT 19/18 A2996 RMK A01 T01850184  RH  100%=      5-min Rain = 0
KCA1 251309Z 18011KT 19/19 A2996 RMK A01 T01850185  RH  100%=      5-min Rain = 0
KCA1 251310Z 19011KT 19/19 A2996 RMK A01 T01850185  RH  100%=      5-min Rain = 0
KCA1 251311Z 18012KT 19/19 A2996 RMK A01 T01850185  RH  100%=      5-min Rain = 0
KCA1 251312Z 18012KT 19/19 A2996 RMK A01 T01860185  RH  100%=      5-min Rain = 0
KCA1 251313Z 18011KT 19/19 A2996 RMK A01 T01850185  RH  100%=      5-min Rain = 0
KCA1 251314Z 18012KT 19/19 A2996 RMK A01 T01860185  RH  100%=      5-min Rain = 0
KCA1 251315Z 18013KT 19/19 A2996 RMK A01 T01860185  RH  099%=      5-min Rain = 0
KCA1 251316Z 19015KT 19/19 A2996 RMK A01 T01860185  RH  099%=      5-min Rain = 0
KCA1 251317Z 18009KT 19/19 A2996 RMK A01 T01870185  RH  099%=      5-min Rain = 0
KCA1 251318Z 18011KT 19/19 A2997 RMK A01 T01870186  RH  099%=      5-min Rain = 0
KCA1 251319Z 18011KT 19/19 A2997 RMK A01 T01870185  RH  099%=      5-min Rain = 0
KCA1 251320Z 19010KT 19/19 A2997 RMK A01 T01870186  RH  099%=      5-min Rain = 0
KCA1 251321Z 20008KT 19/19 A2997 RMK A01 T01880186  RH  099%=      5-min Rain = 0
KCA1 251322Z 19009KT 19/19 A2997 RMK A01 T01880186  RH  099%=      5-min Rain = 0
KCA1 251323Z 18007KT 19/19 A2997 RMK A01 T01880186  RH  099%=      5-min Rain = 0
KCA1 251324Z 17009KT 19/19 A2997 RMK A01 T01880186  RH  099%=      5-min Rain = 0
KCA1 251325Z 18008KT 19/19 A2997 RMK A01 T01880186  RH  099%=      5-min Rain = 0
KCA1 251326Z 17010KT 19/19 A2996 RMK A01 T01880186  RH  098%=      5-min Rain = 0
KCA1 251327Z 18011KT 19/19 A2997 RMK A01 T01890186  RH  098%=      5-min Rain = 0
KCA1 251328Z 19009KT 19/19 A2997 RMK A01 T01890186  RH  098%=      5-min Rain = 0
KCA1 251329Z 19014KT 19/19 A2997 RMK A01 T01890186  RH  098%=      5-min Rain = 0
KCA1 251330Z 18011KT 19/19 A2997 RMK A01 T01890186  RH  098%=      5-min Rain = 0
KCA1 251331Z 18012KT 19/19 A2997 RMK A01 T01890186  RH  098%=      5-min Rain = 0
KCA1 251332Z 18013KT 19/19 A2997 RMK A01 T01890186  RH  098%=      5-min Rain = 0
KCA1 251333Z 18013KT 19/19 A2997 RMK A01 T01890185  RH  098%=      5-min Rain = 0
KCA1 251334Z 18011KT 19/19 A2997 RMK A01 T01890185  RH  098%=      5-min Rain = 0
KCA1 251335Z 18009KT 19/19 A2997 RMK A01 T01890186  RH  098%=      5-min Rain = 0
KCA1 251336Z 19010KT 19/19 A2997 RMK A01 T01900187  RH  098%=      5-min Rain = 0
KCA1 251337Z 19010KT 19/19 A2997 RMK A01 T01890186  RH  098%=      5-min Rain = 0
KCA1 251338Z 18009KT 19/19 A2997 RMK A01 T01900187  RH  098%=      5-min Rain = 0
KCA1 251339Z 18012KT 19/19 A2997 RMK A01 T01900187  RH  098%=      5-min Rain = 0
KCA1 251340Z 18012KT 19/19 A2997 RMK A01 T01900187  RH  098%=      5-min Rain = 0
KCA1 251341Z 18013KT 19/19 A2997 RMK A01 T01900187  RH  098%=      5-min Rain = 0
KCA1 251342Z 19009KT 19/19 A2997 RMK A01 T01900187  RH  098%=      5-min Rain = 0
KCA1 251343Z 18012KT 19/19 A2997 RMK A01 T01900187  RH  098%=      5-min Rain = 0
KCA1 251344Z 19014KT 19/19 A2997 RMK A01 T01900186  RH  098%=      5-min Rain = 0
KCA1 251345Z 19016KT 19/19 A2997 RMK A01 T01900186  RH  097%=      5-min Rain = 0
KCA1 251346Z 18016KT 19/19 A2997 RMK A01 T01900186  RH  097%=      5-min Rain = 0
KCA1 251347Z 19013KT 19/19 A2997 RMK A01 T01900186  RH  097%=      5-min Rain = 0
KCA1 251348Z 19014KT 19/19 A2997 RMK A01 T01900186  RH  098%=      5-min Rain = 0
KCA1 251349Z 19015KT 19/19 A2997 RMK A01 T01900187  RH  098%=      5-min Rain = 0
KCA1 251350Z 18011KT 19/19 A2997 RMK A01 T01900187  RH  098%=      5-min Rain = 0
KCA1 251351Z 19014KT 19/19 A2997 RMK A01 T01900187  RH  098%=      5-min Rain = 0
KCA1 251352Z 19011G16KT 19/19 A2997 RMK A01 T01900187  RH  098%=      5-min Rain = 0
KCA1 251353Z 18011KT 19/19 A2997 RMK A01 T01900187  RH  098%=      5-min Rain = 0
KCA1 251354Z 18011KT 19/19 A2997 RMK A01 T01910187  RH  098%=      5-min Rain = 0
KCA1 251355Z 18014KT 19/19 A2997 RMK A01 T01910187  RH  098%=      5-min Rain = 0
KCA1 251356Z 18013KT 19/19 A2997 RMK A01 T01910187  RH  098%=      5-min Rain = 0
KCA1 251357Z 18014KT 19/19 A2997 RMK A01 T01910187  RH  098%=      5-min Rain = 0
KCA1 251358Z 18012KT 19/19 A2997 RMK A01 T01910187  RH  098%=      5-min Rain = 0
KCA1 251359Z 17011KT 19/19 A2997 RMK A01 T01910187  RH  098%=      5-min Rain = 0
KCA1 251400Z 18011KT 19/19 A2997 RMK A01 T01910188  RH  098%=      5-min Rain = 0
KCA1 251401Z 19012KT 19/19 A2997 RMK A01 T01910187  RH  098%=      5-min Rain = 0
KCA1 251402Z 18012KT 19/19 A2997 RMK A01 T01910188  RH  098%=      5-min Rain = 0
KCA1 251403Z 18012KT 19/19 A2997 RMK A01 T01910187  RH  098%=      5-min Rain = 0
KCA1 251404Z 19010KT 19/19 A2997 RMK A01 T01910187  RH  098%=      5-min Rain = 0
KCA1 251405Z 17009KT 19/19 A2997 RMK A01 T01920188  RH  098%=      5-min Rain = 0
KCA1 251406Z 18010KT 19/19 A2997 RMK A01 T01920189  RH  098%=      5-min Rain = 0
KCA1 251407Z 19011KT 19/19 A2997 RMK A01 T01930189  RH  098%=      5-min Rain = 0
KCA1 251408Z 18010G15KT 19/19 A2997 RMK A01 T01930189  RH  097%=      5-min Rain = 0
KCA1 251409Z 17016KT 19/19 A2997 RMK A01 T01930188  RH  097%=      5-min Rain = 0
KCA1 251410Z 17013KT 19/19 A2997 RMK A01 T01930188  RH  097%=      5-min Rain = 0
KCA1 251411Z 17012KT 19/19 A2997 RMK A01 T01930188  RH  097%=      5-min Rain = 0
KCA1 251412Z 17011KT 19/19 A2997 RMK A01 T01930188  RH  097%=      5-min Rain = 0
KCA1 251413Z 17013KT 19/19 A2997 RMK A01 T01930188  RH  097%=      5-min Rain = 0
KCA1 251414Z 17013KT 19/19 A2997 RMK A01 T01940188  RH  097%=      5-min Rain = 0
KCA1 251415Z 18011KT 19/19 A2997 RMK A01 T01940189  RH  097%=      5-min Rain = 0
KCA1 251416Z 19009KT 19/19 A2997 RMK A01 T01940189  RH  097%=      5-min Rain = 0
KCA1 251417Z 18011KT 20/19 A2997 RMK A01 T01950189  RH  097%=      5-min Rain = 0
KCA1 251418Z 17008KT 20/19 A2997 RMK A01 T01950189  RH  097%=      5-min Rain = 0
KCA1 251419Z 18010KT 20/19 A2997 RMK A01 T01960191  RH  097%=      5-min Rain = 0
KCA1 251420Z 19008G13KT 20/19 A2997 RMK A01 T01960191  RH  097%=      5-min Rain = 0
KCA1 251421Z 18010KT 20/19 A2997 RMK A01 T01970190  RH  096%=      5-min Rain = 0
KCA1 251422Z 18012G17KT 20/19 A2997 RMK A01 T01960190  RH  096%=      5-min Rain = 0
KCA1 251423Z 18014KT 20/19 A2997 RMK A01 T01970189  RH  095%=      5-min Rain = 0
KCA1 251424Z 18014KT 20/19 A2997 RMK A01 T01970189  RH  095%=      5-min Rain = 0
KCA1 251425Z 18015G20KT 20/19 A2997 RMK A01 T01970189  RH  095%=      5-min Rain = 0
KCA1 251426Z 19015KT 20/19 A2997 RMK A01 T01970189  RH  095%=      5-min Rain = 0
KCA1 251427Z 18016KT 20/19 A2997 RMK A01 T01970189  RH  095%=      5-min Rain = 0
KCA1 251428Z 18014KT 20/19 A2997 RMK A01 T01970189  RH  095%=      5-min Rain = 0
KCA1 251429Z 18015G20KT 20/19 A2997 RMK A01 T01980189  RH  095%=      5-min Rain = 0
KCA1 251430Z 19013KT 20/19 A2997 RMK A01 T01980189  RH  095%=      5-min Rain = 0
KCA1 251431Z 18014KT 20/19 A2997 RMK A01 T01980190  RH  095%=      5-min Rain = 0
KCA1 251432Z 17012KT 20/19 A2997 RMK A01 T01980190  RH  095%=      5-min Rain = 0
KCA1 251433Z 18010KT 20/19 A2997 RMK A01 T01990191  RH  095%=      5-min Rain = 0
KCA1 251434Z 18009KT 20/19 A2997 RMK A01 T01990191  RH  095%=      5-min Rain = 0
KCA1 251435Z 18011G16KT 20/19 A2997 RMK A01 T02000192  RH  095%=      5-min Rain = 0
KCA1 251436Z 18014KT 20/19 A2997 RMK A01 T02000191  RH  094%=      5-min Rain = 0
KCA1 251437Z 18013KT 20/19 A2997 RMK A01 T02010191  RH  094%=      5-min Rain = 0
KCA1 251438Z 18014KT 20/19 A2997 RMK A01 T02000191  RH  094%=      5-min Rain = 0
KCA1 251439Z 19014KT 20/19 A2997 RMK A01 T02000190  RH  094%=      5-min Rain = 0
KCA1 251440Z 19012KT 20/19 A2997 RMK A01 T02000190  RH  094%=      5-min Rain = 0
KCA1 251441Z 18015KT 20/19 A2997 RMK A01 T02000191  RH  094%=      5-min Rain = 0
KCA1 251442Z 18015KT 20/19 A2997 RMK A01 T02000191  RH  094%=      5-min Rain = 0
KCA1 251443Z 18015KT 20/19 A2997 RMK A01 T02000191  RH  094%=      5-min Rain = 0
KCA1 251444Z 18014KT 20/19 A2997 RMK A01 T02000191  RH  094%=      5-min Rain = 0
KCA1 251445Z 18013KT 20/19 A2997 RMK A01 T02000191  RH  094%=      5-min Rain = 0
KCA1 251446Z 18013KT 20/19 A2997 RMK A01 T02000191  RH  094%=      5-min Rain = 0
KCA1 251447Z 18015KT 20/19 A2997 RMK A01 T02000191  RH  094%=      5-min Rain = 0
KCA1 251448Z 18013KT 20/19 A2997 RMK A01 T02010191  RH  094%=      5-min Rain = 0
KCA1 251449Z 18013G19KT 20/19 A2997 RMK A01 T02010191  RH  094%=      5-min Rain = 0
KCA1 251450Z 18015KT 20/19 A2997 RMK A01 T02020191  RH  094%=      5-min Rain = 0
KCA1 251451Z 19014KT 20/19 A2997 RMK A01 T02020192  RH  094%=      5-min Rain = 0
KCA1 251452Z 18012KT 20/19 A2997 RMK A01 T02020191  RH  094%=      5-min Rain = 0
KCA1 251453Z 19013KT 20/19 A2997 RMK A01 T02020192  RH  094%=      5-min Rain = 0
KCA1 251454Z 18011KT 20/19 A2997 RMK A01 T02020192  RH  094%=      5-min Rain = 0
KCA1 251455Z 17011KT 20/19 A2998 RMK A01 T02030193  RH  094%=      5-min Rain = 0
KCA1 251456Z 19012KT 20/19 A2997 RMK A01 T02030193  RH  094%=      5-min Rain = 0
KCA1 251457Z 18013G19KT 20/19 A2998 RMK A01 T02030193  RH  094%=      5-min Rain = 0
KCA1 251458Z 19018KT 20/19 A2997 RMK A01 T02040192  RH  093%=      5-min Rain = 0
KCA1 251459Z 18012KT 20/19 A2998 RMK A01 T02030192  RH  093%=      5-min Rain = 0
KCA1 251500Z 18013KT 20/19 A2998 RMK A01 T02030193  RH  094%=      5-min Rain = 0
KCA1 251501Z 18012KT 20/19 A2997 RMK A01 T02030192  RH  093%=      5-min Rain = 0
KCA1 251502Z 18014KT 20/19 A2997 RMK A01 T02030193  RH  093%=      5-min Rain = 0
KCA1 251503Z 18014KT 20/19 A2997 RMK A01 T02040193  RH  093%=      5-min Rain = 0
KCA1 251504Z 18013KT 20/19 A2997 RMK A01 T02040192  RH  093%=      5-min Rain = 0
KCA1 251505Z 18017KT 21/19 A2997 RMK A01 T02050193  RH  093%=      5-min Rain = 0
KCA1 251506Z 19016KT 20/19 A2998 RMK A01 T02040192  RH  093%=      5-min Rain = 0
KCA1 251507Z 19016G21KT 21/19 A2997 RMK A01 T02050193  RH  093%=      5-min Rain = 0
KCA1 251508Z 18017KT 20/19 A2997 RMK A01 T02040192  RH  093%=      5-min Rain = 0
KCA1 251509Z 18015KT 20/19 A2998 RMK A01 T02040193  RH  093%=      5-min Rain = 0
KCA1 251510Z 18016KT 21/19 A2998 RMK A01 T02050193  RH  093%=      5-min Rain = 0
KCA1 251511Z 19012KT 21/19 A2998 RMK A01 T02050193  RH  093%=      5-min Rain = 0
KCA1 251512Z 18012KT 21/19 A2998 RMK A01 T02050194  RH  093%=      5-min Rain = 0
KCA1 251513Z 19013KT 21/20 A2998 RMK A01 T02060195  RH  093%=      5-min Rain = 0
KCA1 251514Z 18014KT 21/19 A2998 RMK A01 T02060194  RH  092%=      5-min Rain = 0
KCA1 251515Z 18014KT 21/19 A2998 RMK A01 T02060193  RH  092%=      5-min Rain = 0
KCA1 251516Z 18015KT 21/19 A2998 RMK A01 T02060193  RH  092%=      5-min Rain = 0
KCA1 251517Z 18010KT 21/19 A2998 RMK A01 T02060194  RH  093%=      5-min Rain = 0
KCA1 251518Z 20012KT 21/20 A2998 RMK A01 T02070195  RH  093%=      5-min Rain = 0
KCA1 251519Z 20014KT 21/19 A2998 RMK A01 T02070194  RH  093%=      5-min Rain = 0
KCA1 251520Z 20013KT 21/19 A2998 RMK A01 T02070194  RH  092%=      5-min Rain = 0
KCA1 251521Z 19015KT 21/20 A2998 RMK A01 T02070195  RH  093%=      5-min Rain = 0
KCA1 251522Z 20012KT 21/20 A2998 RMK A01 T02070195  RH  093%=      5-min Rain = 0
KCA1 251523Z 19016KT 21/19 A2998 RMK A01 T02070194  RH  093%=      5-min Rain = 0
KCA1 251524Z 19017G22KT 21/19 A2998 RMK A01 T02070194  RH  092%=      5-min Rain = 0
KCA1 251525Z 19015KT 21/19 A2998 RMK A01 T02070194  RH  093%=      5-min Rain = 0
KCA1 251526Z 18016G21KT 21/20 A2998 RMK A01 T02070195  RH  093%=      5-min Rain = 0
KCA1 251527Z 18019KT 21/19 A2998 RMK A01 T02070194  RH  092%=      5-min Rain = 0
KCA1 251528Z 19017KT 21/19 A2998 RMK A01 T02070194  RH  092%=      5-min Rain = 0
KCA1 251529Z 19015KT 21/20 A2998 RMK A01 T02070195  RH  093%=      5-min Rain = 0
KCA1 251530Z 19013KT 21/20 A2998 RMK A01 T02070195  RH  093%=      5-min Rain = 0
KCA1 251531Z 18014G19KT 21/20 A2998 RMK A01 T02070195  RH  093%=      5-min Rain = 0
KCA1 251532Z 19012G17KT 21/20 A2998 RMK A01 T02070195  RH  093%=      5-min Rain = 0
KCA1 251533Z 18010G16KT 21/20 A2998 RMK A01 T02080195  RH  093%=      5-min Rain = 0
KCA1 251534Z 19013KT 21/20 A2998 RMK A01 T02080196  RH  093%=      5-min Rain = 0
KCA1 251535Z 20014KT 21/20 A2998 RMK A01 T02080195  RH  092%=      5-min Rain = 0
KCA1 251536Z 18010KT 21/20 A2998 RMK A01 T02080195  RH  092%=      5-min Rain = 0
KCA1 251537Z 19014KT 21/20 A2998 RMK A01 T02080196  RH  093%=      5-min Rain = 0
KCA1 251538Z 19012G17KT 21/20 A2998 RMK A01 T02080196  RH  092%=      5-min Rain = 0
KCA1 251539Z 18010KT 21/20 A2998 RMK A01 T02080196  RH  093%=      5-min Rain = 0
KCA1 251540Z 17011KT 21/20 A2998 RMK A01 T02080195  RH  092%=      5-min Rain = 0
KCA1 251541Z 19010KT 21/20 A2998 RMK A01 T02090196  RH  093%=      5-min Rain = 0
KCA1 251542Z 19009KT 21/20 A2999 RMK A01 T02090197  RH  093%=      5-min Rain = 0
KCA1 251543Z 20012KT 21/20 A2999 RMK A01 T02090197  RH  093%=      5-min Rain = 0
KCA1 251544Z 20010KT 21/20 A2998 RMK A01 T02090196  RH  092%=      5-min Rain = 0
KCA1 251545Z 19011KT 21/20 A2999 RMK A01 T02090196  RH  092%=      5-min Rain = 0
KCA1 251546Z 19012KT 21/20 A2998 RMK A01 T02100197  RH  092%=      5-min Rain = 0
KCA1 251547Z 19010KT 21/20 A2998 RMK A01 T02100196  RH  092%=      5-min Rain = 0
KCA1 251548Z 19011KT 21/20 A2999 RMK A01 T02100197  RH  092%=      5-min Rain = 0
KCA1 251549Z 19010KT 21/20 A2999 RMK A01 T02100197  RH  092%=      5-min Rain = 0
KCA1 251550Z 19009KT 21/20 A2999 RMK A01 T02100197  RH  092%=      5-min Rain = 0
KCA1 251551Z 20010KT 21/20 A2999 RMK A01 T02110198  RH  092%=      5-min Rain = 0
KCA1 251552Z 20010KT 21/20 A2999 RMK A01 T02110199  RH  093%=      5-min Rain = 0
KCA1 251553Z 20015KT 21/20 A2999 RMK A01 T02120198  RH  092%=      5-min Rain = 0
KCA1 251554Z 20014KT 21/20 A2999 RMK A01 T02120196  RH  091%=      5-min Rain = 0
KCA1 251555Z 20012KT 21/20 A2999 RMK A01 T02110196  RH  091%=      5-min Rain = 0
KCA1 251556Z 19012KT 21/20 A2999 RMK A01 T02110197  RH  091%=      5-min Rain = 0
KCA1 251557Z 20010KT 21/20 A2999 RMK A01 T02110196  RH  091%=      5-min Rain = 0
KCA1 251558Z 19008KT 21/20 A2999 RMK A01 T02110197  RH  092%=      5-min Rain = 0
KCA1 251559Z 19015KT 21/20 A2999 RMK A01 T02120198  RH  092%=      5-min Rain = 0
KCA1 251600Z 19015KT 21/20 A2999 RMK A01 T02110196  RH  091%=      5-min Rain = 0
KCA1 251601Z 19014G19KT 21/20 A2999 RMK A01 T02110196  RH  091%=      5-min Rain = 0
KCA1 251602Z 20017KT 21/20 A2999 RMK A01 T02110196  RH  091%=      5-min Rain = 0
KCA1 251603Z 19014KT 21/20 A2999 RMK A01 T02110195  RH  091%=      5-min Rain = 0
KCA1 251604Z 19017KT 21/20 A2999 RMK A01 T02110196  RH  091%=      5-min Rain = 0
KCA1 251605Z 20015KT 21/20 A2999 RMK A01 T02110196  RH  091%=      5-min Rain = 0
KCA1 251606Z 20014KT 21/20 A2999 RMK A01 T02110196  RH  091%=      5-min Rain = 0
KCA1 251607Z 20013G19KT 21/20 A2999 RMK A01 T02110196  RH  091%=      5-min Rain = 0
KCA1 251608Z 19011KT 21/20 A2999 RMK A01 T02110197  RH  092%=      5-min Rain = 0
KCA1 251609Z 19013KT 21/20 A2999 RMK A01 T02120197  RH  091%=      5-min Rain = 0
KCA1 251610Z 19013KT 21/20 A2999 RMK A01 T02120196  RH  091%=      5-min Rain = 0
KCA1 251611Z 18011KT 21/20 A2999 RMK A01 T02120197  RH  091%=      5-min Rain = 0
KCA1 251612Z 20011KT 21/20 A2999 RMK A01 T02120197  RH  091%=      5-min Rain = 0
KCA1 251613Z 20012KT 21/20 A2999 RMK A01 T02120197  RH  091%=      5-min Rain = 0
KCA1 251614Z 19014KT 21/20 A2999 RMK A01 T02120196  RH  091%=      5-min Rain = 0
KCA1 251615Z 19014KT 21/20 A2999 RMK A01 T02120196  RH  091%=      5-min Rain = 0
KCA1 251616Z 19011KT 21/20 A2999 RMK A01 T02120196  RH  091%=      5-min Rain = 0
KCA1 251617Z 20011KT 21/20 A2999 RMK A01 T02120197  RH  091%=      5-min Rain = 0
KCA1 251618Z 19012KT 21/20 A2999 RMK A01 T02120197  RH  091%=      5-min Rain = 0
KCA1 251619Z 20014KT 21/20 A2999 RMK A01 T02120197  RH  091%=      5-min Rain = 0
KCA1 251620Z 20013KT 21/20 A2999 RMK A01 T02120197  RH  091%=      5-min Rain = 0
KCA1 251621Z 20012KT 21/20 A2999 RMK A01 T02120197  RH  091%=      5-min Rain = 0
KCA1 251622Z 20013KT 21/20 A2999 RMK A01 T02120197  RH  091%=      5-min Rain = 0
KCA1 251623Z 20011KT 21/20 A2999 RMK A01 T02120197  RH  091%=      5-min Rain = 0
KCA1 251624Z 19009KT 21/20 A2999 RMK A01 T02120198  RH  091%=      5-min Rain = 0
KCA1 251625Z 18011KT 21/20 A2999 RMK A01 T02120198  RH  092%=      5-min Rain = 0
KCA1 251626Z 19010KT 21/20 A2999 RMK A01 T02130198  RH  091%=      5-min Rain = 0
KCA1 251627Z 20009KT 21/20 A2999 RMK A01 T02130199  RH  092%=      5-min Rain = 0
KCA1 251628Z 20008KT 21/20 A2999 RMK A01 T02130199  RH  092%=      5-min Rain = 0
KCA1 251629Z 20008KT 21/20 A2999 RMK A01 T02130199  RH  092%=      5-min Rain = 0
KCA1 251630Z 20008KT 21/20 A2999 RMK A01 T02130198  RH  091%=      5-min Rain = 0
KCA1 251631Z 21008KT 21/20 A2999 RMK A01 T02140199  RH  091%=      5-min Rain = 0
KCA1 251632Z 20007KT 21/20 A2999 RMK A01 T02140199  RH  092%=      5-min Rain = 0
KCA1 251633Z 19008KT 21/20 A2999 RMK A01 T02140199  RH  091%=      5-min Rain = 0
KCA1 251634Z 19011KT 21/20 A2999 RMK A01 T02140199  RH  091%=      5-min Rain = 0
KCA1 251635Z 20010KT 21/20 A2999 RMK A01 T02140199  RH  091%=      5-min Rain = 0
KCA1 251636Z 20011KT 21/20 A2999 RMK A01 T02140199  RH  091%=      5-min Rain = 0
KCA1 251637Z 20009KT 21/20 A2999 RMK A01 T02140199  RH  091%=      5-min Rain = 0
KCA1 251638Z 21010KT 21/20 A2999 RMK A01 T02140198  RH  091%=      5-min Rain = 0
KCA1 251639Z 18009KT 21/20 A2999 RMK A01 T02140199  RH  091%=      5-min Rain = 0
KCA1 251640Z 19010KT 21/20 A2999 RMK A01 T02140199  RH  091%=      5-min Rain = 0
KCA1 251641Z 19010KT 21/20 A2999 RMK A01 T02140199  RH  091%=      5-min Rain = 0
KCA1 251642Z 21008KT 22/20 A2999 RMK A01 T02150199  RH  091%=      5-min Rain = 0
KCA1 251643Z 21009KT 22/20 A2999 RMK A01 T02150199  RH  091%=      5-min Rain = 0
KCA1 251644Z 19009KT 22/20 A30 RMK A01 T02150199  RH  091%=      5-min Rain = 0
KCA1 251645Z 20009KT 22/20 A2999 RMK A01 T02150199  RH  091%=      5-min Rain = 0
KCA1 251646Z 22008KT 22/20 A2999 RMK A01 T02150199  RH  090%=      5-min Rain = 0
KCA1 251647Z 20007KT 22/20 A2999 RMK A01 T02150199  RH  091%=      5-min Rain = 0
KCA1 251648Z 20008KT 22/20 A30 RMK A01 T02150200  RH  091%=      5-min Rain = 0
KCA1 251649Z 20010KT 22/20 A2999 RMK A01 T02160200  RH  091%=      5-min Rain = 0
KCA1 251650Z 20011KT 22/20 A2999 RMK A01 T02160200  RH  091%=      5-min Rain = 0
KCA1 251651Z 19011KT 22/20 A2999 RMK A01 T02160199  RH  090%=      5-min Rain = 0
KCA1 251652Z 20011KT 22/20 A2999 RMK A01 T02160199  RH  090%=      5-min Rain = 0
KCA1 251653Z 20011KT 22/20 A2999 RMK A01 T02170199  RH  090%=      5-min Rain = 0
KCA1 251654Z 19008KT 22/20 A2999 RMK A01 T02170199  RH  090%=      5-min Rain = 0
KCA1 251655Z 20009KT 22/20 A2999 RMK A01 T02170200  RH  090%=      5-min Rain = 0
KCA1 251656Z 20008KT 22/20 A2999 RMK A01 T02170200  RH  090%=      5-min Rain = 0
KCA1 251657Z 20009KT 22/20 A2999 RMK A01 T02180200  RH  090%=      5-min Rain = 0
KCA1 251658Z 19009KT 22/20 A2999 RMK A01 T02180201  RH  090%=      5-min Rain = 0
KCA1 251659Z 19010KT 22/20 A2999 RMK A01 T02190202  RH  090%=      5-min Rain = 0
KCA1 251700Z 20011KT 22/20 A2999 RMK A01 T02200201  RH  089%=      5-min Rain = 0
KCA1 251701Z 21013KT 22/20 A2999 RMK A01 T02210201  RH  089%=      5-min Rain = 0
KCA1 251702Z 20014KT 22/20 A2999 RMK A01 T02210200  RH  088%=      5-min Rain = 0
KCA1 251703Z 19012KT 22/20 A2999 RMK A01 T02210199  RH  087%=      5-min Rain = 0
KCA1 251704Z 20012KT 22/20 A2999 RMK A01 T02210199  RH  087%=      5-min Rain = 0
KCA1 251705Z 20012KT 22/20 A2999 RMK A01 T02220200  RH  087%=      5-min Rain = 0
KCA1 251706Z 21014KT 22/20 A2999 RMK A01 T02220200  RH  088%=      5-min Rain = 0
KCA1 251707Z 20011KT 22/20 A2999 RMK A01 T02220201  RH  087%=      5-min Rain = 0
KCA1 251708Z 20012KT 22/20 A2999 RMK A01 T02220201  RH  087%=      5-min Rain = 0
KCA1 251709Z 19011KT 22/20 A2999 RMK A01 T02220201  RH  088%=      5-min Rain = 0
KCA1 251710Z 19010KT 22/20 A2999 RMK A01 T02220201  RH  088%=      5-min Rain = 0
KCA1 251711Z 19009KT 22/20 A2999 RMK A01 T02220201  RH  088%=      5-min Rain = 0
KCA1 251712Z 19012KT 22/20 A2999 RMK A01 T02220202  RH  088%=      5-min Rain = 0
KCA1 251713Z 19010KT 22/20 A2999 RMK A01 T02220200  RH  087%=      5-min Rain = 0
KCA1 251714Z 19008KT 22/20 A2999 RMK A01 T02220201  RH  088%=      5-min Rain = 0
KCA1 251715Z 20009KT 22/20 A2999 RMK A01 T02220202  RH  088%=      5-min Rain = 0
KCA1 251716Z 19011KT 22/20 A2999 RMK A01 T02220201  RH  088%=      5-min Rain = 0
KCA1 251717Z 19010KT 22/20 A2999 RMK A01 T02220200  RH  088%=      5-min Rain = 0
KCA1 251718Z 19008KT 22/20 A2999 RMK A01 T02220200  RH  087%=      5-min Rain = 0
KCA1 251719Z 19009KT 22/20 A2999 RMK A01 T02220201  RH  088%=      5-min Rain = 0
KCA1 251720Z 19009KT 22/20 A2999 RMK A01 T02230201  RH  087%=      5-min Rain = 0
KCA1 251721Z 19009KT 22/20 A2999 RMK A01 T02230201  RH  087%=      5-min Rain = 0
KCA1 251722Z 19013KT 22/20 A2999 RMK A01 T02240201  RH  087%=      5-min Rain = 0
KCA1 251723Z 19011KT 23/20 A2999 RMK A01 T02250201  RH  086%=      5-min Rain = 0
KCA1 251724Z 20012KT 23/20 A2999 RMK A01 T02250201  RH  086%=      5-min Rain = 0
KCA1 251725Z 20012KT 23/20 A2999 RMK A01 T02260200  RH  085%=      5-min Rain = 0
KCA1 251726Z 20011KT 23/20 A2999 RMK A01 T02260200  RH  085%=      5-min Rain = 0
KCA1 251727Z 19009KT 23/20 A2999 RMK A01 T02260200  RH  085%=      5-min Rain = 0
KCA1 251728Z 19009KT 23/20 A2999 RMK A01 T02270201  RH  086%=      5-min Rain = 0
KCA1 251729Z 21009KT 23/20 A2999 RMK A01 T02270201  RH  085%=      5-min Rain = 0
KCA1 251730Z 19008KT 23/20 A2999 RMK A01 T02280202  RH  085%=      5-min Rain = 0
KCA1 251731Z 19008KT 23/20 A2999 RMK A01 T02290203  RH  085%=      5-min Rain = 0
KCA1 251732Z 19009KT 23/20 A2999 RMK A01 T02290203  RH  085%=      5-min Rain = 0
KCA1 251733Z 19008KT 23/20 A2999 RMK A01 T02300203  RH  085%=      5-min Rain = 0
KCA1 251734Z 18008KT 23/20 A2999 RMK A01 T02300203  RH  085%=      5-min Rain = 0
KCA1 251735Z 18011KT 23/20 A2999 RMK A01 T02310203  RH  085%=      5-min Rain = 0
KCA1 251736Z 17010KT 23/20 A2998 RMK A01 T02310202  RH  084%=      5-min Rain = 0
KCA1 251737Z 18008KT 23/20 A2998 RMK A01 T02310204  RH  084%=      5-min Rain = 0
KCA1 251738Z 18009KT 23/20 A2998 RMK A01 T02320203  RH  084%=      5-min Rain = 0
KCA1 251739Z 18008KT 23/20 A2998 RMK A01 T02330204  RH  084%=      5-min Rain = 0
KCA1 251740Z 17007KT 23/21 A2998 RMK A01 T02330206  RH  085%=      5-min Rain = 0
KCA1 251741Z 18010KT 24/21 A2998 RMK A01 T02350206  RH  084%=      5-min Rain = 0
KCA1 251742Z 18007KT 24/21 A2998 RMK A01 T02360205  RH  083%=      5-min Rain = 0
KCA1 251743Z 19009KT 24/21 A2998 RMK A01 T02360206  RH  083%=      5-min Rain = 0
KCA1 251744Z 20008KT 24/21 A2998 RMK A01 T02360205  RH  083%=      5-min Rain = 0
KCA1 251745Z 19010KT 24/21 A2998 RMK A01 T02370206  RH  083%=      5-min Rain = 0
KCA1 251746Z 18010KT 24/21 A2998 RMK A01 T02370205  RH  082%=      5-min Rain = 0
KCA1 251747Z 18010KT 24/21 A2998 RMK A01 T02370205  RH  082%=      5-min Rain = 0
KCA1 251748Z 20010KT 24/21 A2998 RMK A01 T02380205  RH  082%=      5-min Rain = 0
KCA1 251749Z 20011KT 24/21 A2998 RMK A01 T02380205  RH  082%=      5-min Rain = 0
KCA1 251750Z 18010KT 24/21 A2998 RMK A01 T02380205  RH  082%=      5-min Rain = 0
KCA1 251751Z 18010KT 24/21 A2998 RMK A01 T02380206  RH  082%=      5-min Rain = 0
KCA1 251752Z 18009KT 24/21 A2998 RMK A01 T02390206  RH  082%=      5-min Rain = 0
KCA1 251753Z 18011KT 24/21 A2998 RMK A01 T02390206  RH  082%=      5-min Rain = 0
KCA1 251754Z 19011KT 24/21 A2998 RMK A01 T02390205  RH  081%=      5-min Rain = 0
KCA1 251755Z 19010KT 24/21 A2998 RMK A01 T02390206  RH  082%=      5-min Rain = 0
KCA1 251756Z 19012KT 24/21 A2998 RMK A01 T02390206  RH  082%=      5-min Rain = 0
KCA1 251757Z 19012KT 24/21 A2998 RMK A01 T02390205  RH  081%=      5-min Rain = 0
KCA1 251758Z 17010KT 24/21 A2998 RMK A01 T02390206  RH  082%=      5-min Rain = 0
KCA1 251759Z 19008KT 24/21 A2998 RMK A01 T02390207  RH  082%=      5-min Rain = 0
KCA1 251800Z 18008KT 24/21 A2998 RMK A01 T02400209  RH  083%=      5-min Rain = 0
KCA1 251801Z 19011KT 24/21 A2997 RMK A01 T02400207  RH  082%=      5-min Rain = 0
KCA1 251802Z 19013KT 24/21 A2997 RMK A01 T02410206  RH  081%=      5-min Rain = 0
KCA1 251803Z 18009KT 24/21 A2997 RMK A01 T02410208  RH  082%=      5-min Rain = 0
KCA1 251804Z 18011KT 24/21 A2997 RMK A01 T02410209  RH  082%=      5-min Rain = 0
KCA1 251805Z 18011KT 24/21 A2997 RMK A01 T02410208  RH  082%=      5-min Rain = 0
KCA1 251806Z 18012KT 24/21 A2997 RMK A01 T02410206  RH  081%=      5-min Rain = 0
KCA1 251807Z 18010KT 24/21 A2997 RMK A01 T02410207  RH  081%=      5-min Rain = 0
KCA1 251808Z 18011KT 24/21 A2997 RMK A01 T02410206  RH  081%=      5-min Rain = 0
KCA1 251809Z 19011KT 24/21 A2997 RMK A01 T02410208  RH  081%=      5-min Rain = 0
KCA1 251810Z 20014KT 24/21 A2997 RMK A01 T02420206  RH  080%=      5-min Rain = 0
KCA1 251811Z 19012KT 24/21 A2997 RMK A01 T02420205  RH  080%=      5-min Rain = 0
KCA1 251812Z 18011KT 24/21 A2997 RMK A01 T02410206  RH  081%=      5-min Rain = 0
KCA1 251813Z 17013KT 24/21 A2997 RMK A01 T02410206  RH  081%=      5-min Rain = 0
KCA1 251814Z 18012G17KT 24/21 A2997 RMK A01 T02400205  RH  080%=      5-min Rain = 0
KCA1 251815Z 17010KT 24/21 A2997 RMK A01 T02390205  RH  081%=      5-min Rain = 0
KCA1 251816Z 18011KT 24/21 A2997 RMK A01 T02390206  RH  082%=      5-min Rain = 0
KCA1 251817Z 18011KT 24/21 A2997 RMK A01 T02390206  RH  082%=      5-min Rain = 0
KCA1 251818Z 18011KT 24/21 A2997 RMK A01 T02380207  RH  083%=      5-min Rain = 0
KCA1 251819Z 18012KT 24/21 A2997 RMK A01 T02380206  RH  082%=      5-min Rain = 0
KCA1 251820Z 18012KT 24/21 A2997 RMK A01 T02390206  RH  082%=      5-min Rain = 0
KCA1 251821Z 19011KT 24/21 A2997 RMK A01 T02400208  RH  082%=      5-min Rain = 0
KCA1 251822Z 19011KT 24/21 A2997 RMK A01 T02410208  RH  082%=      5-min Rain = 0
KCA1 251823Z 18010KT 24/21 A2997 RMK A01 T02430208  RH  081%=      5-min Rain = 0
KCA1 251824Z 18011KT 24/21 A2997 RMK A01 T02430208  RH  081%=      5-min Rain = 0
KCA1 251825Z 18013KT 24/21 A2997 RMK A01 T02440208  RH  080%=      5-min Rain = 0
KCA1 251826Z 17013KT 24/21 A2997 RMK A01 T02440207  RH  080%=      5-min Rain = 0
KCA1 251827Z 18012KT 25/21 A2997 RMK A01 T02460209  RH  080%=      5-min Rain = 0
KCA1 251828Z 18013KT 25/21 A2997 RMK A01 T02480211  RH  080%=      5-min Rain = 0
KCA1 251829Z 18014KT 25/21 A2997 RMK A01 T02500209  RH  078%=      5-min Rain = 0
KCA1 251830Z 18013KT 25/21 A2997 RMK A01 T02480207  RH  078%=      5-min Rain = 0
KCA1 251831Z 17013KT 25/21 A2997 RMK A01 T02460207  RH  079%=      5-min Rain = 0
KCA1 251832Z 18013KT 25/21 A2997 RMK A01 T02450208  RH  080%=      5-min Rain = 0
KCA1 251833Z 18014KT 25/21 A2996 RMK A01 T02450207  RH  079%=      5-min Rain = 0
KCA1 251834Z 18014KT 24/21 A2996 RMK A01 T02440207  RH  080%=      5-min Rain = 0
KCA1 251835Z 19013KT 24/21 A2996 RMK A01 T02440206  RH  079%=      5-min Rain = 0
KCA1 251836Z 19012KT 24/21 A2996 RMK A01 T02440208  RH  080%=      5-min Rain = 0
KCA1 251837Z 19014KT 25/21 A2996 RMK A01 T02450207  RH  079%=      5-min Rain = 0
KCA1 251838Z 18013KT 25/21 A2996 RMK A01 T02460208  RH  079%=      5-min Rain = 0
KCA1 251839Z 18014KT 25/21 A2996 RMK A01 T02460207  RH  079%=      5-min Rain = 0
KCA1 251840Z 17013KT 25/21 A2996 RMK A01 T02460208  RH  079%=      5-min Rain = 0
KCA1 251841Z 18016KT 25/21 A2996 RMK A01 T02460208  RH  079%=      5-min Rain = 0
KCA1 251842Z 19017KT 25/21 A2996 RMK A01 T02460206  RH  078%=      5-min Rain = 0
KCA1 251843Z 18017KT 24/20 A2996 RMK A01 T02440204  RH  078%=      5-min Rain = 0
KCA1 251844Z 18015KT 24/20 A2996 RMK A01 T02430204  RH  079%=      5-min Rain = 0
KCA1 251845Z 18013KT 24/21 A2996 RMK A01 T02430207  RH  080%=      5-min Rain = 0
KCA1 251846Z 18012KT 25/21 A2996 RMK A01 T02450208  RH  080%=      5-min Rain = 0
KCA1 251847Z 17014KT 25/21 A2996 RMK A01 T02480209  RH  079%=      5-min Rain = 0
KCA1 251848Z 17014KT 25/21 A2996 RMK A01 T02490208  RH  078%=      5-min Rain = 0
KCA1 251849Z 17014KT 25/21 A2996 RMK A01 T02490207  RH  078%=      5-min Rain = 0
KCA1 251850Z 17013KT 25/21 A2996 RMK A01 T02470206  RH  078%=      5-min Rain = 0
KCA1 251851Z 17014KT 25/21 A2995 RMK A01 T02460207  RH  079%=      5-min Rain = 0
KCA1 251852Z 17014KT 25/21 A2996 RMK A01 T02450207  RH  080%=      5-min Rain = 0
KCA1 251853Z 17013KT 24/21 A2996 RMK A01 T02440207  RH  080%=      5-min Rain = 0
KCA1 251854Z 17013KT 24/21 A2996 RMK A01 T02430206  RH  080%=      5-min Rain = 0
KCA1 251855Z 17011KT 24/21 A2996 RMK A01 T02430206  RH  080%=      5-min Rain = 0
KCA1 251856Z 16010KT 24/21 A2996 RMK A01 T02420208  RH  081%=      5-min Rain = 0
KCA1 251857Z 17010KT 24/21 A2996 RMK A01 T02420209  RH  081%=      5-min Rain = 0
KCA1 251858Z 16011KT 24/21 A2996 RMK A01 T02430209  RH  081%=      5-min Rain = 0
KCA1 251859Z 17012KT 24/21 A2996 RMK A01 T02430208  RH  081%=      5-min Rain = 0
KCA1 251900Z 17011KT 24/21 A2996 RMK A01 T02420207  RH  081%=      5-min Rain = 0
KCA1 251901Z 16010KT 24/21 A2996 RMK A01 T02410208  RH  082%=      5-min Rain = 0
KCA1 251902Z 17008KT 24/21 A2996 RMK A01 T02410210  RH  083%=      5-min Rain = 0
KCA1 251903Z 16010KT 24/21 A2996 RMK A01 T02410210  RH  083%=      5-min Rain = 0
KCA1 251904Z 16013KT 24/21 A2996 RMK A01 T02420208  RH  082%=      5-min Rain = 0
KCA1 251905Z 17014KT 24/21 A2996 RMK A01 T02410208  RH  082%=      5-min Rain = 0
KCA1 251906Z 17011KT 24/21 A2996 RMK A01 T02400207  RH  081%=      5-min Rain = 0
KCA1 251907Z 17010KT 24/21 A2996 RMK A01 T02390206  RH  082%=      5-min Rain = 0
KCA1 251908Z 18008KT 24/21 A2996 RMK A01 T02390208  RH  083%=      5-min Rain = 0
KCA1 251909Z 18009KT 24/21 A2996 RMK A01 T02400209  RH  083%=      5-min Rain = 0
KCA1 251910Z 18010KT 24/21 A2996 RMK A01 T02410209  RH  082%=      5-min Rain = 0
KCA1 251911Z 18011KT 24/21 A2996 RMK A01 T02410208  RH  082%=      5-min Rain = 0
KCA1 251912Z 17010KT 24/21 A2996 RMK A01 T02410208  RH  082%=      5-min Rain = 0
KCA1 251913Z 17009KT 24/21 A2996 RMK A01 T02420210  RH  082%=      5-min Rain = 0
KCA1 251914Z 17013KT 24/21 A2996 RMK A01 T02420207  RH  081%=      5-min Rain = 0
KCA1 251915Z 17013KT 24/21 A2996 RMK A01 T02430206  RH  080%=      5-min Rain = 0
KCA1 251916Z 17012KT 24/21 A2996 RMK A01 T02420206  RH  080%=      5-min Rain = 0
KCA1 251917Z 17010KT 24/21 A2996 RMK A01 T02420205  RH  080%=      5-min Rain = 0
KCA1 251918Z 18011KT 24/21 A2995 RMK A01 T02430206  RH  080%=      5-min Rain = 0
KCA1 251919Z 18012KT 24/21 A2995 RMK A01 T02420206  RH  080%=      5-min Rain = 0
KCA1 251920Z 17010KT 24/21 A2995 RMK A01 T02420207  RH  081%=      5-min Rain = 0
KCA1 251921Z 18012KT 24/21 A2995 RMK A01 T02430207  RH  080%=      5-min Rain = 0
KCA1 251922Z 18011KT 24/21 A2995 RMK A01 T02430206  RH  080%=      5-min Rain = 0
KCA1 251923Z 16010KT 24/21 A2995 RMK A01 T02420208  RH  081%=      5-min Rain = 0
KCA1 251924Z 17011KT 24/21 A2995 RMK A01 T02420208  RH  081%=      5-min Rain = 0
KCA1 251925Z 17013KT 24/21 A2995 RMK A01 T02410207  RH  081%=      5-min Rain = 0
KCA1 251926Z 17013KT 24/21 A2995 RMK A01 T02400206  RH  081%=      5-min Rain = 0
KCA1 251927Z 17010KT 24/21 A2995 RMK A01 T02400207  RH  082%=      5-min Rain = 0
KCA1 251928Z 17010KT 24/21 A2994 RMK A01 T02400208  RH  082%=      5-min Rain = 0
KCA1 251929Z 18009KT 24/21 A2994 RMK A01 T02400208  RH  082%=      5-min Rain = 0
KCA1 251930Z 17007KT 24/21 A2994 RMK A01 T02410210  RH  083%=      5-min Rain = 0
KCA1 251931Z 17008KT 24/21 A2994 RMK A01 T02420210  RH  083%=      5-min Rain = 0
KCA1 251932Z 17009KT 24/21 A2994 RMK A01 T02420210  RH  082%=      5-min Rain = 0
KCA1 251933Z 17011KT 24/21 A2994 RMK A01 T02420208  RH  081%=      5-min Rain = 0
KCA1 251934Z 17011KT 24/21 A2994 RMK A01 T02420209  RH  082%=      5-min Rain = 0
KCA1 251935Z 17015KT 24/21 A2994 RMK A01 T02420208  RH  081%=      5-min Rain = 0
KCA1 251936Z 17014KT 24/21 A2994 RMK A01 T02410205  RH  080%=      5-min Rain = 0
KCA1 251937Z 17016KT 24/21 A2994 RMK A01 T02400205  RH  081%=      5-min Rain = 0
KCA1 251938Z 17014KT 24/21 A2994 RMK A01 T02400205  RH  081%=      5-min Rain = 0
KCA1 251939Z 17013KT 24/21 A2994 RMK A01 T02400206  RH  081%=      5-min Rain = 0
KCA1 251940Z 16012G17KT 24/21 A2994 RMK A01 T02400207  RH  082%=      5-min Rain = 0
KCA1 251941Z 17016KT 24/21 A2994 RMK A01 T02400207  RH  082%=      5-min Rain = 0
KCA1 251942Z 18015KT 24/21 A2994 RMK A01 T02400206  RH  081%=      5-min Rain = 0
KCA1 251943Z 19014KT 24/21 A2994 RMK A01 T02400206  RH  081%=      5-min Rain = 0
KCA1 251944Z 19013KT 24/21 A2994 RMK A01 T02400206  RH  081%=      5-min Rain = 0
KCA1 251945Z 18015KT 24/21 A2994 RMK A01 T02390206  RH  082%=      5-min Rain = 0
KCA1 251946Z 18013KT 24/21 A2994 RMK A01 T02390206  RH  082%=      5-min Rain = 0
KCA1 251947Z 18012KT 24/21 A2994 RMK A01 T02390207  RH  082%=      5-min Rain = 0
KCA1 251948Z 17010KT 24/21 A2994 RMK A01 T02380208  RH  083%=      5-min Rain = 0
KCA1 251949Z 18012KT 24/21 A2995 RMK A01 T02380208  RH  084%=      5-min Rain = 0
KCA1 251950Z 17010KT 24/21 A2995 RMK A01 T02380208  RH  083%=      5-min Rain = 0
KCA1 251951Z 17011KT 24/21 A2994 RMK A01 T02370207  RH  083%=      5-min Rain = 0
KCA1 251952Z 17011KT 24/21 A2994 RMK A01 T02360207  RH  084%=      5-min Rain = 0
KCA1 251953Z 18011KT 24/21 A2994 RMK A01 T02360207  RH  084%=      5-min Rain = 0
KCA1 251954Z 17009KT 24/21 A2994 RMK A01 T02360207  RH  084%=      5-min Rain = 0
KCA1 251955Z 18012G17KT 24/21 A2994 RMK A01 T02360208  RH  085%=      5-min Rain = 0
KCA1 251956Z 18010KT 24/21 A2994 RMK A01 T02350207  RH  084%=      5-min Rain = 0
KCA1 251957Z 18009KT 24/21 A2994 RMK A01 T02350207  RH  084%=      5-min Rain = 0
KCA1 251958Z 18011KT 24/21 A2994 RMK A01 T02350208  RH  085%=      5-min Rain = 0
KCA1 251959Z 18010KT 24/21 A2994 RMK A01 T02350208  RH  085%=      5-min Rain = 0
KCA1 252000Z 18011KT 24/21 A2994 RMK A01 T02360208  RH  085%=      5-min Rain = 0
KCA1 252001Z 18010KT 24/21 A2994 RMK A01 T02360207  RH  084%=      5-min Rain = 0
KCA1 252002Z 18009KT 24/21 A2994 RMK A01 T02360208  RH  084%=      5-min Rain = 0
KCA1 252003Z 17013KT 24/21 A2994 RMK A01 T02360207  RH  084%=      5-min Rain = 0
KCA1 252004Z 18011KT 24/21 A2994 RMK A01 T02370207  RH  083%=      5-min Rain = 0
KCA1 252005Z 18012KT 24/21 A2994 RMK A01 T02370207  RH  083%=      5-min Rain = 0
KCA1 252006Z 17011KT 24/21 A2994 RMK A01 T02370207  RH  083%=      5-min Rain = 0
KCA1 252007Z 17011KT 24/21 A2994 RMK A01 T02380208  RH  084%=      5-min Rain = 0
KCA1 252008Z 17012KT 24/21 A2994 RMK A01 T02370207  RH  083%=      5-min Rain = 0
KCA1 252009Z 17012KT 24/21 A2994 RMK A01 T02370207  RH  083%=      5-min Rain = 0
KCA1 252010Z 17013KT 24/21 A2994 RMK A01 T02370207  RH  083%=      5-min Rain = 0
KCA1 252011Z 17012KT 24/21 A2994 RMK A01 T02360207  RH  084%=      5-min Rain = 0
KCA1 252012Z 17014KT 24/21 A2994 RMK A01 T02360206  RH  084%=      5-min Rain = 0
KCA1 252013Z 17014KT 24/21 A2994 RMK A01 T02360207  RH  084%=      5-min Rain = 0
KCA1 252014Z 17013KT 24/21 A2994 RMK A01 T02350206  RH  084%=      5-min Rain = 0
KCA1 252015Z 17011KT 24/21 A2994 RMK A01 T02350206  RH  084%=      5-min Rain = 0
KCA1 252016Z 17013KT 23/21 A2993 RMK A01 T02340208  RH  085%=      5-min Rain = 0
KCA1 252017Z 17014KT 23/21 A2993 RMK A01 T02330208  RH  086%=      5-min Rain = 0
KCA1 252018Z 17014KT 23/21 A2993 RMK A01 T02320208  RH  086%=      5-min Rain = 0
KCA1 252019Z 17014KT 23/21 A2993 RMK A01 T02300208  RH  087%=      5-min Rain = 0
KCA1 252020Z 18014KT 23/21 A2993 RMK A01 T02290208  RH  088%=      5-min Rain = 0
KCA1 252021Z 18015KT 23/21 A2993 RMK A01 T02290208  RH  088%=      5-min Rain = 0
KCA1 252022Z 18013KT 23/21 A2993 RMK A01 T02280208  RH  088%=      5-min Rain = 0
KCA1 252023Z 17013KT 23/21 A2993 RMK A01 T02270209  RH  089%=      5-min Rain = 0
KCA1 252024Z 17013KT 23/21 A2993 RMK A01 T02270209  RH  089%=      5-min Rain = 0
KCA1 252025Z 18013KT 23/21 A2993 RMK A01 T02270208  RH  089%=      5-min Rain = 0
KCA1 252026Z 18013KT 23/21 A2993 RMK A01 T02270208  RH  089%=      5-min Rain = 0
KCA1 252027Z 17012KT 23/21 A2993 RMK A01 T02260208  RH  089%=      5-min Rain = 0
KCA1 252028Z 17012KT 23/21 A2993 RMK A01 T02260208  RH  089%=      5-min Rain = 0
KCA1 252029Z 16013KT 23/21 A2993 RMK A01 T02260208  RH  089%=      5-min Rain = 0
KCA1 252030Z 17011KT 23/21 A2993 RMK A01 T02260207  RH  089%=      5-min Rain = 0
KCA1 252031Z 17012KT 23/21 A2993 RMK A01 T02270208  RH  089%=      5-min Rain = 0
KCA1 252032Z 17011KT 23/21 A2993 RMK A01 T02260208  RH  089%=      5-min Rain = 0
KCA1 252033Z 17008KT 23/21 A2993 RMK A01 T02260209  RH  090%=      5-min Rain = 0
KCA1 252034Z 17009KT 23/21 A2993 RMK A01 T02260209  RH  090%=      5-min Rain = 0
KCA1 252035Z 16009KT 23/21 A2993 RMK A01 T02260209  RH  090%=      5-min Rain = 0
KCA1 252036Z 16009KT 23/21 A2993 RMK A01 T02250209  RH  090%=      5-min Rain = 0
KCA1 252037Z 16008KT 23/21 A2993 RMK A01 T02250209  RH  091%=      5-min Rain = 0
KCA1 252038Z 16009KT 23/21 A2993 RMK A01 T02260209  RH  090%=      5-min Rain = 0
KCA1 252039Z 16009KT 23/21 A2993 RMK A01 T02260209  RH  090%=      5-min Rain = 0
KCA1 252040Z 15008KT 23/21 A2992 RMK A01 T02260209  RH  090%=      5-min Rain = 0
KCA1 252041Z 14007KT 23/21 A2992 RMK A01 T02250209  RH  090%=      5-min Rain = 0
KCA1 252042Z 14008KT 23/21 A2992 RMK A01 T02260209  RH  090%=      5-min Rain = 0
KCA1 252043Z 14008KT 23/21 A2992 RMK A01 T02250209  RH  090%=      5-min Rain = 0
KCA1 252044Z 14006KT 23/21 A2992 RMK A01 T02250209  RH  091%=      5-min Rain = 0
KCA1 252045Z 13008KT 23/21 A2992 RMK A01 T02250209  RH  091%=      5-min Rain = 0
KCA1 252046Z 14008KT 23/21 A2992 RMK A01 T02250209  RH  091%=      5-min Rain = 0
KCA1 252047Z 14007KT 23/21 A2992 RMK A01 T02250209  RH  091%=      5-min Rain = 0
KCA1 252048Z 15008KT 23/21 A2992 RMK A01 T02250209  RH  091%=      5-min Rain = 0
KCA1 252049Z 14008KT 23/21 A2992 RMK A01 T02250209  RH  091%=      5-min Rain = 0
KCA1 252050Z 14008KT 22/21 A2992 RMK A01 T02240209  RH  091%=      5-min Rain = 0
KCA1 252051Z 14007KT 22/21 A2992 RMK A01 T02240209  RH  091%=      5-min Rain = 0
KCA1 252052Z 14008KT 22/21 A2992 RMK A01 T02240210  RH  092%=      5-min Rain = 0
KCA1 252053Z 13006KT 22/21 A2992 RMK A01 T02240210  RH  092%=      5-min Rain = 0
KCA1 252054Z 13007KT 22/21 A2991 RMK A01 T02230210  RH  092%=      5-min Rain = 0
KCA1 252055Z 12007KT 22/21 A2991 RMK A01 T02230210  RH  092%=      5-min Rain = 0
KCA1 252056Z 13007KT 22/21 A2991 RMK A01 T02230210  RH  092%=      5-min Rain = 0
KCA1 252057Z 13007KT 22/21 A2991 RMK A01 T02230210  RH  092%=      5-min Rain = 0
KCA1 252058Z 13008KT 22/21 A2991 RMK A01 T02230210  RH  092%=      5-min Rain = 0
KCA1 252059Z 14009KT 22/21 A2991 RMK A01 T02220209  RH  092%=      5-min Rain = 0
KCA1 252100Z 14011KT 22/21 A2991 RMK A01 T02230210  RH  093%=      5-min Rain = 0
KCA1 252101Z 14012KT 22/21 A2991 RMK A01 T02220210  RH  093%=      5-min Rain = 0
KCA1 252102Z 13010KT 22/21 A2991 RMK A01 T02220211  RH  093%=      5-min Rain = 0
KCA1 252103Z 14011KT 22/21 A2991 RMK A01 T02210212  RH  094%=      5-min Rain = 0
KCA1 252104Z 13012KT 22/21 A2991 RMK A01 T02200212  RH  095%=      5-min Rain = 0
KCA1 252105Z 13010KT 22/21 A2991 RMK A01 T02200212  RH  095%=      5-min Rain = 0
KCA1 252106Z 13011KT 22/21 A2991 RMK A01 T02190212  RH  096%=      5-min Rain = 0.01
KCA1 252107Z 13012KT 22/21 A2991 RMK A01 T02190213  RH  096%=      5-min Rain = 0
KCA1 252108Z 13011KT 22/21 A2991 RMK A01 T02180213  RH  097%=      5-min Rain = 0
KCA1 252109Z 13008KT 22/21 A2991 RMK A01 T02180214  RH  097%=      5-min Rain = 0
KCA1 252110Z 14008KT 22/21 A2991 RMK A01 T02170214  RH  098%=      5-min Rain = 0
KCA1 252111Z 14008KT 22/21 A2991 RMK A01 T02170214  RH  098%=      5-min Rain = 0
KCA1 252112Z 14008KT 22/22 A2991 RMK A01 T02170215  RH  099%=      5-min Rain = 0
KCA1 252113Z 14009KT 22/22 A2992 RMK A01 T02170215  RH  099%=      5-min Rain = 0
KCA1 252114Z 14009KT 22/22 A2992 RMK A01 T02160215  RH  099%=      5-min Rain = 0
KCA1 252115Z 13009KT 22/22 A2992 RMK A01 T02160215  RH  099%=      5-min Rain = 0
KCA1 252116Z 13008KT 22/22 A2992 RMK A01 T02160215  RH  099%=      5-min Rain = 0.04
KCA1 252117Z 13007KT 22/22 A2992 RMK A01 T02160216  RH  100%=      5-min Rain = 0.01
KCA1 252118Z 13009KT 22/22 A2992 RMK A01 T02160216  RH  100%=      5-min Rain = 0.01
KCA1 252119Z 12008KT 22/22 A2992 RMK A01 T02150215  RH  100%=      5-min Rain = 0.01
KCA1 252120Z 12007KT 22/22 A2992 RMK A01 T02150215  RH  100%=      5-min Rain = 0.01
KCA1 252121Z 13007KT 22/22 A2992 RMK A01 T02160216  RH  100%=      5-min Rain = 0
KCA1 252122Z 12007KT 22/22 A2992 RMK A01 T02150215  RH  100%=      5-min Rain = 0
KCA1 252123Z 12007KT 22/22 A2992 RMK A01 T02150216  RH  100%=      5-min Rain = 0.01
KCA1 252124Z 12008KT 22/22 A2992 RMK A01 T02150215  RH  100%=      5-min Rain = 0.02
KCA1 252125Z 12005KT 21/21 A2991 RMK A01 T02140214  RH  100%=      5-min Rain = 0
KCA1 252126Z 11003KT 21/21 A2991 RMK A01 T02140214  RH  100%=      5-min Rain = 0
KCA1 252127Z 13004KT 21/21 A2991 RMK A01 T02140214  RH  100%=      5-min Rain = 0.01
KCA1 252128Z 13004KT 21/21 A2991 RMK A01 T02130213  RH  100%=      5-min Rain = 0
KCA1 252129Z 14004KT 21/21 A2991 RMK A01 T02130213  RH  100%=      5-min Rain = 0
KCA1 252130Z 13005KT 21/21 A2991 RMK A01 T02130213  RH  100%=      5-min Rain = 0
KCA1 252131Z 12007KT 21/21 A2991 RMK A01 T02130213  RH  100%=      5-min Rain = 0
KCA1 252132Z 11006KT 21/21 A2991 RMK A01 T02130213  RH  100%=      5-min Rain = 0
KCA1 252133Z 13004KT 21/21 A2992 RMK A01 T02130213  RH  100%=      5-min Rain = 0
KCA1 252134Z 14004KT 21/21 A2992 RMK A01 T02140214  RH  100%=      5-min Rain = 0
KCA1 252135Z 15006KT 21/21 A2992 RMK A01 T02140214  RH  100%=      5-min Rain = 0
KCA1 252136Z 16006KT 21/21 A2992 RMK A01 T02140214  RH  100%=      5-min Rain = 0
KCA1 252137Z 15005KT 21/21 A2992 RMK A01 T02140214  RH  100%=      5-min Rain = 0
KCA1 252138Z 15003KT 21/21 A2991 RMK A01 T02130214  RH  100%=      5-min Rain = 0
KCA1 252139Z 18005KT 21/21 A2991 RMK A01 T02140214  RH  100%=      5-min Rain = 0
KCA1 252140Z 21006KT 21/21 A2992 RMK A01 T02140214  RH  100%=      5-min Rain = 0
KCA1 252141Z 21006KT 21/21 A2992 RMK A01 T02140214  RH  100%=      5-min Rain = 0.01
KCA1 252142Z 20009KT 21/21 A2993 RMK A01 T02140214  RH  100%=      5-min Rain = 0.01
KCA1 252143Z 20010KT 21/21 A2994 RMK A01 T02140214  RH  100%=      5-min Rain = 0.02
KCA1 252144Z 21012KT 21/21 A2995 RMK A01 T02140214  RH  100%=      5-min Rain = 0.02
KCA1 252145Z 19010KT 21/21 A2995 RMK A01 T02130214  RH  100%=      5-min Rain = 0.06
KCA1 252146Z 15014G19KT 21/21 A2993 RMK A01 T02130213  RH  100%=      5-min Rain = 0.06
KCA1 252147Z 14010G15KT 21/21 A2991 RMK A01 T02080208  RH  100%=      5-min Rain = 0.05
KCA1 252148Z 14010KT 21/21 A2991 RMK A01 T02080208  RH  100%=      5-min Rain = 0.02
KCA1 252149Z 17012KT 21/20 A2991 RMK A01 T02060203  RH  098%=      5-min Rain = 0
KCA1 252150Z 17013KT 20/18 A2991 RMK A01 T02020184  RH  090%=      5-min Rain = 0.01
KCA1 252151Z 17013KT 20/18 A2991 RMK A01 T01980178  RH  088%=      5-min Rain = 0
KCA1 252152Z 17013KT 20/18 A2991 RMK A01 T01970180  RH  090%=      5-min Rain = 0
KCA1 252153Z 17012KT 20/18 A2991 RMK A01 T01960182  RH  092%=      5-min Rain = 0
KCA1 252154Z 17012KT 20/18 A2991 RMK A01 T01960184  RH  093%=      5-min Rain = 0
KCA1 252155Z 17012KT 20/19 A2991 RMK A01 T01950186  RH  094%=      5-min Rain = 0.01
KCA1 252156Z 16013KT 20/19 A2991 RMK A01 T01950190  RH  097%=      5-min Rain = 0
KCA1 252157Z 18013KT 20/20 A2992 RMK A01 T01960196  RH  100%=      5-min Rain = 0
KCA1 252158Z 19013KT 20/20 A2992 RMK A01 T01980198  RH  100%=      5-min Rain = 0.01
KCA1 252159Z 19012KT 20/20 A2992 RMK A01 T02000200  RH  100%=      5-min Rain = 0
KCA1 252200Z 19012KT 20/20 A2993 RMK A01 T02020202  RH  100%=      5-min Rain = 0.01
KCA1 252201Z 19012KT 21/21 A2993 RMK A01 T02050205  RH  100%=      5-min Rain = 0.01
KCA1 252202Z 20011KT 21/21 A2993 RMK A01 T02070207  RH  100%=      5-min Rain = 0.01
KCA1 252203Z 20009KT 21/21 A2993 RMK A01 T02080209  RH  100%=      5-min Rain = 0.01
KCA1 252204Z 21009KT 21/21 A2993 RMK A01 T02090210  RH  100%=      5-min Rain = 0.01
KCA1 252205Z 21009KT 21/21 A2993 RMK A01 T02100210  RH  100%=      5-min Rain = 0
KCA1 252206Z 21008KT 21/21 A2993 RMK A01 T02110211  RH  100%=      5-min Rain = 0.01
KCA1 252207Z 21010KT 21/21 A2993 RMK A01 T02120212  RH  100%=      5-min Rain = 0
KCA1 252208Z 20010KT 21/21 A2994 RMK A01 T02120213  RH  100%=      5-min Rain = 0
KCA1 252209Z 21009KT 21/21 A2994 RMK A01 T02130213  RH  100%=      5-min Rain = 0.01
KCA1 252210Z 21010KT 21/21 A2994 RMK A01 T02130213  RH  100%=      5-min Rain = 0
KCA1 252211Z 22010KT 21/21 A2994 RMK A01 T02130213  RH  100%=      5-min Rain = 0
KCA1 252212Z 22012G17KT 21/21 A2995 RMK A01 T02130213  RH  100%=      5-min Rain = 0
KCA1 252213Z 22016KT 21/21 A2995 RMK A01 T02120212  RH  100%=      5-min Rain = 0
KCA1 252214Z 23013KT 21/21 A2995 RMK A01 T02090206  RH  098%=      5-min Rain = 0
KCA1 252215Z 24012KT 21/20 A2995 RMK A01 T02100197  RH  093%=      5-min Rain = 0
KCA1 252216Z 25013KT 21/19 A2994 RMK A01 T02090194  RH  091%=      5-min Rain = 0.01
KCA1 252217Z 27014KT 21/19 A2994 RMK A01 T02080188  RH  089%=      5-min Rain = 0
KCA1 252218Z 27015KT 21/18 A2994 RMK A01 T02070183  RH  086%=      5-min Rain = 0
KCA1 252219Z 27017KT 21/18 A2994 RMK A01 T02050181  RH  086%=      5-min Rain = 0
KCA1 252220Z 27019KT 20/18 A2995 RMK A01 T02030183  RH  088%=      5-min Rain = 0
KCA1 252221Z 28028G35KT 20/18 A2996 RMK A01 T02010181  RH  088%=      5-min Rain = 0
KCA1 252222Z 29021G27KT 19/17 A2997 RMK A01 T01920170  RH  087%=      5-min Rain = 0
KCA1 252223Z 29021G27KT 18/16 A2998 RMK A01 T01840164  RH  088%=      5-min Rain = 0.01
KCA1 252224Z 29023KT 18/16 A2999 RMK A01 T01780161  RH  090%=      5-min Rain = 0
KCA1 252225Z 29025KT 17/16 A30 RMK A01 T01730159  RH  091%=      5-min Rain = 0
KCA1 252226Z 29018KT 17/16 A30 RMK A01 T01700159  RH  093%=      5-min Rain = 0.01
KCA1 252227Z 28017G24KT 17/16 A30 RMK A01 T01670159  RH  095%=      5-min Rain = 0.01
KCA1 252228Z 29021G28KT 17/16 A2999 RMK A01 T01650158  RH  096%=      5-min Rain = 0.02
KCA1 252229Z 30021G26KT 16/16 A2999 RMK A01 T01630157  RH  096%=      5-min Rain = 0.02
KCA1 252230Z 30024G29KT 16/16 A2999 RMK A01 T01610156  RH  097%=      5-min Rain = 0.03
KCA1 252231Z 30019G24KT 16/16 A30 RMK A01 T01590156  RH  098%=      5-min Rain = 0.01
KCA1 252232Z 30020KT 16/16 A30 RMK A01 T01580157  RH  099%=      5-min Rain = 0.01
KCA1 252233Z 30021G26KT 16/16 A30 RMK A01 T01580157  RH  099%=      5-min Rain = 0
KCA1 252234Z 29016KT 16/16 A30 RMK A01 T01580158  RH  100%=      5-min Rain = 0.01
KCA1 252235Z 29018G23KT 16/16 A30 RMK A01 T01580158  RH  100%=      5-min Rain = 0
KCA1 252236Z 30016KT 16/16 A30 RMK A01 T01590159  RH  100%=      5-min Rain = 0
KCA1 252237Z 29017G22KT 16/16 A2999 RMK A01 T01590159  RH  100%=      5-min Rain = 0
KCA1 252238Z 30019KT 16/16 A2999 RMK A01 T01600159  RH  100%=      5-min Rain = 0.01
KCA1 252239Z 30019KT 16/16 A2998 RMK A01 T01600158  RH  099%=      5-min Rain = 0
KCA1 252240Z 31015G21KT 16/16 A2998 RMK A01 T01610158  RH  098%=      5-min Rain = 0
KCA1 252241Z 31015G20KT 16/16 A2998 RMK A01 T01610158  RH  098%=      5-min Rain = 0
KCA1 252242Z 30020KT 16/16 A2998 RMK A01 T01610158  RH  098%=      5-min Rain = 0.01
KCA1 252243Z 30018KT 16/16 A2998 RMK A01 T01610158  RH  098%=      5-min Rain = 0
KCA1 252244Z 31017KT 16/16 A2997 RMK A01 T01610157  RH  098%=      5-min Rain = 0
KCA1 252245Z 31015KT 16/16 A2997 RMK A01 T01610158  RH  098%=      5-min Rain = 0
KCA1 252246Z 31015G20KT 16/16 A2996 RMK A01 T01610158  RH  098%=      5-min Rain = 0
KCA1 252247Z 31018KT 16/16 A2996 RMK A01 T01610158  RH  099%=      5-min Rain = 0
KCA1 252248Z 31017KT 16/16 A2995 RMK A01 T01610158  RH  099%=      5-min Rain = 0
KCA1 252249Z 31017KT 16/16 A2995 RMK A01 T01600158  RH  098%=      5-min Rain = 0
KCA1 252250Z 31017KT 16/16 A2995 RMK A01 T01610158  RH  098%=      5-min Rain = 0
KCA1 252251Z 31015KT 16/16 A2995 RMK A01 T01600157  RH  098%=      5-min Rain = 0
KCA1 252252Z 31014KT 16/16 A2995 RMK A01 T01610157  RH  098%=      5-min Rain = 0
KCA1 252253Z 31015KT 16/16 A2995 RMK A01 T01610157  RH  097%=      5-min Rain = 0
KCA1 252254Z 30012KT 16/16 A2996 RMK A01 T01610156  RH  097%=      5-min Rain = 0
KCA1 252255Z 30008KT 16/16 A2996 RMK A01 T01610155  RH  096%=      5-min Rain = 0
KCA1 252256Z 30009KT 16/16 A2997 RMK A01 T01610156  RH  097%=      5-min Rain = 0
KCA1 252257Z 30009KT 16/16 A2997 RMK A01 T01610156  RH  097%=      5-min Rain = 0
KCA1 252258Z 30009KT 16/16 A2998 RMK A01 T01620156  RH  097%=      5-min Rain = 0
KCA1 252259Z 30007KT 16/16 A2998 RMK A01 T01610156  RH  096%=      5-min Rain = 0
KCA1 252300Z 31005KT 16/16 A2998 RMK A01 T01610156  RH  096%=      5-min Rain = 0
KCA1 252301Z 32006KT 16/16 A2998 RMK A01 T01610156  RH  096%=      5-min Rain = 0
KCA1 252302Z 31005KT 16/16 A2997 RMK A01 T01610156  RH  097%=      5-min Rain = 0
KCA1 252303Z 32006KT 16/16 A2997 RMK A01 T01620157  RH  097%=      5-min Rain = 0
KCA1 252304Z 32006KT 16/16 A2997 RMK A01 T01610157  RH  097%=      5-min Rain = 0
KCA1 252305Z 32006KT 16/16 A2996 RMK A01 T01610158  RH  098%=      5-min Rain = 0
KCA1 252306Z 32007KT 16/16 A2996 RMK A01 T01610157  RH  098%=      5-min Rain = 0
KCA1 252307Z 33008KT 16/16 A2995 RMK A01 T01610157  RH  098%=      5-min Rain = 0.01
KCA1 252308Z 33008KT 16/16 A2995 RMK A01 T01610157  RH  097%=      5-min Rain = 0
KCA1 252309Z 33008KT 16/16 A2994 RMK A01 T01610157  RH  098%=      5-min Rain = 0
KCA1 252310Z 33008KT 16/16 A2994 RMK A01 T01610158  RH  098%=      5-min Rain = 0
KCA1 252311Z 33008KT 16/16 A2994 RMK A01 T01610158  RH  098%=      5-min Rain = 0
KCA1 252312Z 33008KT 16/16 A2994 RMK A01 T01600158  RH  098%=      5-min Rain = 0
KCA1 252313Z 33008KT 16/16 A2994 RMK A01 T01600158  RH  098%=      5-min Rain = 0
KCA1 252314Z 33007KT 16/16 A2994 RMK A01 T01610158  RH  098%=      5-min Rain = 0
KCA1 252315Z 32008KT 16/16 A2994 RMK A01 T01600158  RH  098%=      5-min Rain = 0
KCA1 252316Z 32007KT 16/16 A2995 RMK A01 T01610158  RH  098%=      5-min Rain = 0
KCA1 252317Z 32006KT 16/16 A2995 RMK A01 T01610157  RH  097%=      5-min Rain = 0
KCA1 252318Z 31006KT 16/16 A2995 RMK A01 T01610157  RH  097%=      5-min Rain = 0
KCA1 252319Z 28006KT 16/16 A2995 RMK A01 T01620157  RH  097%=      5-min Rain = 0
KCA1 252320Z 28006KT 16/16 A2996 RMK A01 T01610157  RH  097%=      5-min Rain = 0
KCA1 252321Z 30004KT 16/16 A2995 RMK A01 T01610158  RH  098%=      5-min Rain = 0
KCA1 252322Z 30002KT 16/16 A2995 RMK A01 T01620159  RH  098%=      5-min Rain = 0
KCA1 252323Z 22003KT 16/16 A2995 RMK A01 T01610159  RH  098%=      5-min Rain = 0
KCA1 252324Z 22006KT 16/16 A2996 RMK A01 T01610159  RH  099%=      5-min Rain = 0
KCA1 252325Z 22006KT 16/16 A2997 RMK A01 T01610160  RH  099%=      5-min Rain = 0
KCA1 252326Z 21003KT 16/16 A2996 RMK A01 T01610160  RH  100%=      5-min Rain = 0.01
KCA1 252327Z 15002KT 16/16 A2995 RMK A01 T01600160  RH  100%=      5-min Rain = 0
KCA1 252328Z 04002KT 16/16 A2995 RMK A01 T01600160  RH  100%=      5-min Rain = 0
KCA1 252329Z 35004KT 16/16 A2995 RMK A01 T01600160  RH  100%=      5-min Rain = 0
KCA1 252330Z 01006KT 16/16 A2994 RMK A01 T01600160  RH  100%=      5-min Rain = 0
KCA1 252331Z 01006KT 16/16 A2993 RMK A01 T01600160  RH  100%=      5-min Rain = 0.01
KCA1 252332Z 04006KT 16/16 A2993 RMK A01 T01600160  RH  100%=      5-min Rain = 0
KCA1 252333Z 06006KT 16/16 A2994 RMK A01 T01600160  RH  100%=      5-min Rain = 0
KCA1 252334Z 09006KT 16/16 A2995 RMK A01 T01600160  RH  100%=      5-min Rain = 0
KCA1 252335Z 10007KT 16/16 A2995 RMK A01 T01600160  RH  100%=      5-min Rain = 0
KCA1 252336Z 11007KT 16/16 A2995 RMK A01 T01600160  RH  100%=      5-min Rain = 0
KCA1 252337Z 10007KT 16/16 A2995 RMK A01 T01600160  RH  100%=      5-min Rain = 0
KCA1 252338Z 10006KT 16/16 A2994 RMK A01 T01600161  RH  100%=      5-min Rain = 0
KCA1 252339Z 10007KT 16/16 A2993 RMK A01 T01600161  RH  100%=      5-min Rain = 0
KCA1 252340Z 09007KT 16/16 A2993 RMK A01 T01610161  RH  100%=      5-min Rain = 0
KCA1 252341Z 08008KT 16/16 A2992 RMK A01 T01610161  RH  100%=      5-min Rain = 0
KCA1 252342Z 07008KT 16/16 A2991 RMK A01 T01610161  RH  100%=      5-min Rain = 0
KCA1 252343Z 07010KT 16/16 A299 RMK A01 T01600160  RH  100%=      5-min Rain = 0
KCA1 252344Z 07011KT 16/16 A2989 RMK A01 T01600160  RH  100%=      5-min Rain = 0
KCA1 252345Z 06009KT 16/16 A2989 RMK A01 T01600160  RH  100%=      5-min Rain = 0
KCA1 252346Z 06013KT 16/16 A2989 RMK A01 T01600160  RH  100%=      5-min Rain = 0
KCA1 252347Z 07013KT 16/16 A2988 RMK A01 T01600160  RH  100%=      5-min Rain = 0
KCA1 252348Z 07012KT 16/16 A2988 RMK A01 T01610161  RH  100%=      5-min Rain = 0
KCA1 252349Z 07011KT 16/16 A2987 RMK A01 T01610161  RH  100%=      5-min Rain = 0
KCA1 252350Z 07010KT 16/16 A2986 RMK A01 T01610161  RH  100%=      5-min Rain = 0
KCA1 252351Z 07012KT 16/16 A2986 RMK A01 T01610161  RH  100%=      5-min Rain = 0.01
KCA1 252352Z 06015KT 16/16 A2985 RMK A01 T01620161  RH  100%=      5-min Rain = 0
KCA1 252353Z 06016KT 16/16 A2984 RMK A01 T01620161  RH  099%=      5-min Rain = 0
KCA1 252354Z 06014KT 16/16 A2984 RMK A01 T01630160  RH  098%=      5-min Rain = 0
KCA1 252355Z 06014KT 16/16 A2984 RMK A01 T01630159  RH  097%=      5-min Rain = 0
KCA1 252356Z 07014KT 16/16 A2984 RMK A01 T01640159  RH  097%=      5-min Rain = 0
KCA1 252357Z 08012KT 17/16 A2984 RMK A01 T01650159  RH  096%=      5-min Rain = 0
KCA1 252358Z 09014KT 17/16 A2984 RMK A01 T01650158  RH  096%=      5-min Rain = 0
KCA1 252359Z 08014KT 17/16 A2984 RMK A01 T01660158  RH  095%=      5-min Rain = 0
KCA1 260000Z 08013KT 17/16 A2985 RMK A01 T01660158  RH  095%=      5-min Rain = 0
KCA1 260001Z 08011KT 17/16 A2986 RMK A01 T01660158  RH  095%=      5-min Rain = 0
KCA1 260002Z 08008KT 17/16 A2986 RMK A01 T01670158  RH  094%=      5-min Rain = 0
KCA1 260003Z 07007KT 17/16 A2987 RMK A01 T01670158  RH  094%=      5-min Rain = 0
KCA1 260004Z 07007KT 17/16 A2988 RMK A01 T01680158  RH  094%=      5-min Rain = 0
KCA1 260005Z 08007KT 17/16 A2988 RMK A01 T01690158  RH  093%=      5-min Rain = 0
KCA1 260006Z 11009G14KT 17/16 A2989 RMK A01 T01690158  RH  093%=      5-min Rain = 0
KCA1 260007Z 13013KT 17/16 A299 RMK A01 T01700160  RH  094%=      5-min Rain = 0
KCA1 260008Z 13011KT 17/16 A299 RMK A01 T01690160  RH  095%=      5-min Rain = 0
KCA1 260009Z 13014KT 17/16 A2991 RMK A01 T01670160  RH  096%=      5-min Rain = 0
KCA1 260010Z 14017KT 17/16 A2991 RMK A01 T01650160  RH  097%=      5-min Rain = 0
KCA1 260011Z 13017KT 16/16 A2991 RMK A01 T01640160  RH  098%=      5-min Rain = 0
KCA1 260012Z 14020KT 16/16 A2991 RMK A01 T01640161  RH  098%=      5-min Rain = 0
KCA1 260013Z 14017KT 16/16 A2991 RMK A01 T01630161  RH  098%=      5-min Rain = 0
KCA1 260014Z 13016KT 16/16 A2991 RMK A01 T01630161  RH  099%=      5-min Rain = 0
KCA1 260015Z 13015KT 16/16 A2991 RMK A01 T01620161  RH  099%=      5-min Rain = 0
KCA1 260016Z 13016KT 16/16 A2991 RMK A01 T01620161  RH  099%=      5-min Rain = 0
KCA1 260017Z 14014KT 16/16 A2992 RMK A01 T01620161  RH  099%=      5-min Rain = 0
KCA1 260018Z 14013KT 16/16 A2992 RMK A01 T01620161  RH  099%=      5-min Rain = 0.01
KCA1 260019Z 13013KT 16/16 A2992 RMK A01 T01620160  RH  099%=      5-min Rain = 0
KCA1 260020Z 13010KT 16/16 A2992 RMK A01 T01620160  RH  098%=      5-min Rain = 0
KCA1 260021Z 12010KT 16/16 A2993 RMK A01 T01630160  RH  098%=      5-min Rain = 0
KCA1 260022Z 12011KT 16/16 A2993 RMK A01 T01630160  RH  098%=      5-min Rain = 0
KCA1 260023Z 13010KT 16/16 A2992 RMK A01 T01630159  RH  098%=      5-min Rain = 0.01
KCA1 260024Z 13011KT 16/16 A2992 RMK A01 T01630159  RH  098%=      5-min Rain = 0.01
KCA1 260025Z 13013KT 16/16 A2991 RMK A01 T01630159  RH  098%=      5-min Rain = 0.01
KCA1 260026Z 12015KT 16/16 A2991 RMK A01 T01630160  RH  098%=      5-min Rain = 0.01
KCA1 260027Z 12016KT 16/16 A299 RMK A01 T01620160  RH  099%=      5-min Rain = 0
KCA1 260028Z 11015G21KT 16/16 A2989 RMK A01 T01620160  RH  099%=      5-min Rain = 0
KCA1 260029Z 11017KT 16/16 A2989 RMK A01 T01620160  RH  098%=      5-min Rain = 0
KCA1 260030Z 12016KT 16/16 A2988 RMK A01 T01640158  RH  096%=      5-min Rain = 0
KCA1 260031Z 13013G20KT 17/16 A2988 RMK A01 T01660157  RH  094%=      5-min Rain = 0
KCA1 260032Z 13010KT 17/16 A2988 RMK A01 T01710157  RH  091%=      5-min Rain = 0
KCA1 260033Z 11012KT 17/16 A2987 RMK A01 T01720158  RH  091%=      5-min Rain = 0
KCA1 260034Z 10015KT 17/16 A2986 RMK A01 T01720157  RH  091%=      5-min Rain = 0
KCA1 260035Z 10014KT 17/16 A2986 RMK A01 T01740157  RH  090%=      5-min Rain = 0
KCA1 260036Z 10011KT 17/16 A2985 RMK A01 T01730157  RH  090%=      5-min Rain = 0
KCA1 260037Z 11011KT 17/16 A2985 RMK A01 T01730158  RH  091%=      5-min Rain = 0
KCA1 260038Z 11010G15KT 17/16 A2985 RMK A01 T01740158  RH  090%=      5-min Rain = 0
KCA1 260039Z 11008KT 17/16 A2984 RMK A01 T01740158  RH  090%=      5-min Rain = 0
KCA1 260040Z 10007KT 18/16 A2984 RMK A01 T01760158  RH  089%=      5-min Rain = 0
KCA1 260041Z 11008KT 18/16 A2984 RMK A01 T01770158  RH  089%=      5-min Rain = 0
KCA1 260042Z 11008KT 18/16 A2985 RMK A01 T01770158  RH  089%=      5-min Rain = 0
KCA1 260043Z 11008KT 18/16 A2985 RMK A01 T01770158  RH  089%=      5-min Rain = 0
KCA1 260044Z 11008KT 18/16 A2985 RMK A01 T01760158  RH  089%=      5-min Rain = 0
KCA1 260045Z 11008KT 18/16 A2985 RMK A01 T01750157  RH  089%=      5-min Rain = 0
KCA1 260046Z 11007KT 18/16 A2985 RMK A01 T01750157  RH  089%=      5-min Rain = 0
KCA1 260047Z 13007KT 18/16 A2986 RMK A01 T01750158  RH  090%=      5-min Rain = 0
KCA1 260048Z 14005KT 18/16 A2986 RMK A01 T01750159  RH  090%=      5-min Rain = 0
KCA1 260049Z 18005KT 17/16 A2986 RMK A01 T01740160  RH  091%=      5-min Rain = 0
KCA1 260050Z 19006KT 17/16 A2986 RMK A01 T01730161  RH  093%=      5-min Rain = 0
KCA1 260051Z 17005KT 17/16 A2986 RMK A01 T01720161  RH  093%=      5-min Rain = 0
KCA1 260052Z 16005KT 17/16 A2987 RMK A01 T01710160  RH  094%=      5-min Rain = 0
KCA1 260053Z 14005KT 17/16 A2987 RMK A01 T01690160  RH  094%=      5-min Rain = 0
KCA1 260054Z 15005KT 17/16 A2987 RMK A01 T01690160  RH  095%=      5-min Rain = 0
KCA1 260055Z 16003KT 17/16 A2987 RMK A01 T01680160  RH  095%=      5-min Rain = 0
KCA1 260056Z 26002KT 17/16 A2987 RMK A01 T01680161  RH  095%=      5-min Rain = 0
KCA1 260057Z 29005KT 17/16 A2988 RMK A01 T01670162  RH  096%=      5-min Rain = 0
KCA1 260058Z 29004KT 17/16 A2988 RMK A01 T01670162  RH  097%=      5-min Rain = 0
KCA1 260059Z 24003KT 17/16 A2988 RMK A01 T01670163  RH  097%=      5-min Rain = 0
KCA1 260100Z 21004KT 17/16 A2989 RMK A01 T01670163  RH  098%=      5-min Rain = 0
KCA1 260101Z 19005KT 17/16 A2989 RMK A01 T01670163  RH  098%=      5-min Rain = 0
KCA1 260102Z 18005KT 17/16 A299 RMK A01 T01660162  RH  098%=      5-min Rain = 0
KCA1 260103Z 17005KT 17/16 A299 RMK A01 T01660162  RH  097%=      5-min Rain = 0
KCA1 260104Z 17003KT 17/16 A299 RMK A01 T01650161  RH  097%=      5-min Rain = 0
KCA1 260105Z 18003KT 17/16 A299 RMK A01 T01650161  RH  098%=      5-min Rain = 0
KCA1 260106Z 17002KT 17/16 A2989 RMK A01 T01650161  RH  098%=      5-min Rain = 0
KCA1 260107Z 17001KT 17/16 A2989 RMK A01 T01650161  RH  098%=      5-min Rain = 0
KCA1 260108Z 14002KT 16/16 A2989 RMK A01 T01640161  RH  098%=      5-min Rain = 0
KCA1 260109Z 13004KT 16/16 A2989 RMK A01 T01640161  RH  098%=      5-min Rain = 0
KCA1 260110Z 14004KT 16/16 A2989 RMK A01 T01640161  RH  098%=      5-min Rain = 0
KCA1 260111Z 15004KT 16/16 A299 RMK A01 T01640160  RH  098%=      5-min Rain = 0
KCA1 260112Z 15006KT 16/16 A299 RMK A01 T01640161  RH  098%=      5-min Rain = 0
KCA1 260113Z 14006KT 16/16 A299 RMK A01 T01640161  RH  098%=      5-min Rain = 0
KCA1 260114Z 14008KT 16/16 A299 RMK A01 T01640161  RH  098%=      5-min Rain = 0
KCA1 260115Z 14009KT 16/16 A299 RMK A01 T01640162  RH  098%=      5-min Rain = 0
KCA1 260116Z 13010KT 16/16 A299 RMK A01 T01640162  RH  099%=      5-min Rain = 0
KCA1 260117Z 13011KT 16/16 A299 RMK A01 T01640162  RH  098%=      5-min Rain = 0
KCA1 260118Z 14011KT 16/16 A299 RMK A01 T01640161  RH  098%=      5-min Rain = 0
KCA1 260119Z 13011KT 17/16 A299 RMK A01 T01650161  RH  098%=      5-min Rain = 0
KCA1 260120Z 13011KT 17/16 A299 RMK A01 T01650161  RH  098%=      5-min Rain = 0
KCA1 260121Z 14010KT 17/16 A2991 RMK A01 T01650162  RH  098%=      5-min Rain = 0
KCA1 260122Z 14011KT 17/16 A2991 RMK A01 T01650162  RH  098%=      5-min Rain = 0
KCA1 260123Z 14009KT 17/16 A2991 RMK A01 T01650163  RH  099%=      5-min Rain = 0
KCA1 260124Z 13010KT 17/16 A299 RMK A01 T01650163  RH  099%=      5-min Rain = 0
KCA1 260125Z 14009KT 17/16 A299 RMK A01 T01650163  RH  099%=      5-min Rain = 0
KCA1 260126Z 14012KT 17/16 A299 RMK A01 T01650162  RH  098%=      5-min Rain = 0
KCA1 260127Z 15009KT 17/16 A299 RMK A01 T01650161  RH  098%=      5-min Rain = 0
KCA1 260128Z 14009KT 17/16 A299 RMK A01 T01650161  RH  098%=      5-min Rain = 0
KCA1 260129Z 14011KT 17/16 A2991 RMK A01 T01650162  RH  098%=      5-min Rain = 0
KCA1 260130Z 14010KT 17/16 A299 RMK A01 T01660162  RH  098%=      5-min Rain = 0
KCA1 260131Z 14010KT 17/16 A299 RMK A01 T01650162  RH  098%=      5-min Rain = 0
KCA1 260132Z 13008KT 17/16 A2991 RMK A01 T01650162  RH  098%=      5-min Rain = 0
KCA1 260133Z 13009KT 17/16 A2991 RMK A01 T01660163  RH  098%=      5-min Rain = 0
KCA1 260134Z 12007KT 17/16 A299 RMK A01 T01660163  RH  098%=      5-min Rain = 0
KCA1 260135Z 12011KT 17/16 A299 RMK A01 T01650163  RH  098%=      5-min Rain = 0
KCA1 260136Z 12009KT 17/16 A2989 RMK A01 T01650163  RH  098%=      5-min Rain = 0
KCA1 260137Z 11007G12KT 17/16 A2989 RMK A01 T01650163  RH  099%=      5-min Rain = 0
KCA1 260138Z 11007KT 17/16 A2989 RMK A01 T01650163  RH  099%=      5-min Rain = 0
KCA1 260139Z 11011KT 17/16 A2989 RMK A01 T01650162  RH  099%=      5-min Rain = 0
KCA1 260140Z 11008KT 17/16 A2988 RMK A01 T01650162  RH  098%=      5-min Rain = 0
KCA1 260141Z 09009KT 17/16 A2988 RMK A01 T01650162  RH  098%=      5-min Rain = 0
KCA1 260142Z 09008KT 17/16 A2988 RMK A01 T01650162  RH  098%=      5-min Rain = 0
KCA1 260143Z 09008KT 17/16 A2988 RMK A01 T01650162  RH  098%=      5-min Rain = 0
KCA1 260144Z 09006KT 17/16 A2988 RMK A01 T01650163  RH  098%=      5-min Rain = 0
KCA1 260145Z 09007KT 17/16 A2988 RMK A01 T01650163  RH  099%=      5-min Rain = 0
KCA1 260146Z 08006KT 17/16 A2989 RMK A01 T01650163  RH  099%=      5-min Rain = 0
KCA1 260147Z 08007KT 17/16 A2989 RMK A01 T01650163  RH  099%=      5-min Rain = 0
KCA1 260148Z 08007KT 17/16 A2989 RMK A01 T01650163  RH  099%=      5-min Rain = 0
KCA1 260149Z 08007KT 17/16 A2989 RMK A01 T01650164  RH  099%=      5-min Rain = 0
KCA1 260150Z 08007KT 17/16 A2989 RMK A01 T01650164  RH  099%=      5-min Rain = 0
KCA1 260151Z 06007KT 17/16 A2989 RMK A01 T01650164  RH  099%=      5-min Rain = 0
KCA1 260152Z 06007KT 17/16 A2989 RMK A01 T01650164  RH  099%=      5-min Rain = 0
KCA1 260153Z 06007KT 17/16 A2988 RMK A01 T01650164  RH  099%=      5-min Rain = 0
KCA1 260154Z 05008KT 17/16 A2988 RMK A01 T01650164  RH  099%=      5-min Rain = 0
KCA1 260155Z 05008KT 17/16 A2989 RMK A01 T01650164  RH  099%=      5-min Rain = 0
KCA1 260156Z 05006KT 17/16 A2989 RMK A01 T01650164  RH  099%=      5-min Rain = 0
KCA1 260157Z 03005KT 17/16 A2989 RMK A01 T01650164  RH  099%=      5-min Rain = 0
KCA1 260158Z 03006KT 17/16 A2989 RMK A01 T01650164  RH  099%=      5-min Rain = 0
KCA1 260159Z 03006KT 17/16 A2989 RMK A01 T01650164  RH  100%=      5-min Rain = 0
KCA1 260200Z 03007KT 17/16 A2989 RMK A01 T01650164  RH  100%=      5-min Rain = 0
KCA1 260201Z 04008KT 16/16 A2989 RMK A01 T01640164  RH  100%=      5-min Rain = 0
KCA1 260202Z 04008KT 17/17 A2989 RMK A01 T01650165  RH  100%=      5-min Rain = 0
KCA1 260203Z 04007KT 16/17 A2989 RMK A01 T01640165  RH  100%=      5-min Rain = 0
KCA1 260204Z 05007KT 17/17 A2989 RMK A01 T01650165  RH  100%=      5-min Rain = 0
KCA1 260205Z 04008KT 17/17 A2989 RMK A01 T01650165  RH  100%=      5-min Rain = 0
KCA1 260206Z 05010KT 17/17 A2989 RMK A01 T01650165  RH  100%=      5-min Rain = 0
KCA1 260207Z 06008KT 17/17 A2989 RMK A01 T01650165  RH  100%=      5-min Rain = 0
KCA1 260208Z 06009KT 17/17 A2989 RMK A01 T01650165  RH  100%=      5-min Rain = 0
KCA1 260209Z 07009KT 16/17 A2989 RMK A01 T01640165  RH  100%=      5-min Rain = 0
KCA1 260210Z 07009KT 17/17 A299 RMK A01 T01650165  RH  100%=      5-min Rain = 0
KCA1 260211Z 07008KT 17/17 A299 RMK A01 T01650165  RH  100%=      5-min Rain = 0
KCA1 260212Z 06009KT 17/17 A299 RMK A01 T01650165  RH  100%=      5-min Rain = 0
KCA1 260213Z 06010KT 17/17 A2989 RMK A01 T01650165  RH  100%=      5-min Rain = 0
KCA1 260214Z 06010KT 17/17 A2989 RMK A01 T01650165  RH  100%=      5-min Rain = 0
KCA1 260215Z 06010KT 17/17 A2989 RMK A01 T01650165  RH  100%=      5-min Rain = 0
KCA1 260216Z 06010KT 17/17 A2989 RMK A01 T01650165  RH  100%=      5-min Rain = 0
KCA1 260217Z 06009KT 17/17 A2989 RMK A01 T01650165  RH  100%=      5-min Rain = 0
KCA1 260218Z 06008KT 17/17 A2989 RMK A01 T01650165  RH  100%=      5-min Rain = 0
KCA1 260219Z 05007KT 17/17 A2989 RMK A01 T01650165  RH  100%=      5-min Rain = 0
KCA1 260220Z 05007KT 17/17 A2989 RMK A01 T01650165  RH  100%=      5-min Rain = 0
KCA1 260221Z 05008KT 17/17 A2989 RMK A01 T01650165  RH  100%=      5-min Rain = 0
KCA1 260222Z 04008KT 17/17 A2989 RMK A01 T01650165  RH  100%=      5-min Rain = 0
KCA1 260223Z 04007KT 17/17 A2989 RMK A01 T01650165  RH  100%=      5-min Rain = 0
KCA1 260224Z 03005KT 16/16 A2989 RMK A01 T01640164  RH  100%=      5-min Rain = 0
KCA1 260225Z 03006KT 16/16 A299 RMK A01 T01640164  RH  100%=      5-min Rain = 0
KCA1 260226Z 03007KT 16/16 A299 RMK A01 T01640164  RH  100%=      5-min Rain = 0
KCA1 260227Z 03007KT 16/16 A299 RMK A01 T01640164  RH  100%=      5-min Rain = 0
KCA1 260228Z 04007KT 16/16 A299 RMK A01 T01640164  RH  100%=      5-min Rain = 0
KCA1 260229Z 04006KT 16/16 A299 RMK A01 T01640164  RH  100%=      5-min Rain = 0
KCA1 260230Z 05006KT 16/16 A299 RMK A01 T01640164  RH  100%=      5-min Rain = 0
KCA1 260231Z 05008KT 16/16 A299 RMK A01 T01640164  RH  100%=      5-min Rain = 0
KCA1 260232Z 05009KT 16/16 A299 RMK A01 T01640164  RH  100%=      5-min Rain = 0
KCA1 260233Z 05009KT 16/16 A299 RMK A01 T01640164  RH  100%=      5-min Rain = 0
KCA1 260234Z 05008KT 16/16 A299 RMK A01 T01640164  RH  100%=      5-min Rain = 0
KCA1 260235Z 05008KT 17/17 A299 RMK A01 T01650165  RH  100%=      5-min Rain = 0
KCA1 260236Z 05008KT 17/17 A299 RMK A01 T01650165  RH  100%=      5-min Rain = 0
KCA1 260237Z 05008KT 17/17 A2991 RMK A01 T01650165  RH  100%=      5-min Rain = 0
KCA1 260238Z 06009KT 17/17 A2991 RMK A01 T01650165  RH  100%=      5-min Rain = 0
KCA1 260239Z 06009KT 17/17 A2991 RMK A01 T01650165  RH  100%=      5-min Rain = 0
KCA1 260240Z 07008KT 17/17 A2991 RMK A01 T01650165  RH  100%=      5-min Rain = 0
KCA1 260241Z 07007KT 16/17 A2991 RMK A01 T01640165  RH  100%=      5-min Rain = 0
KCA1 260242Z 07007KT 17/17 A299 RMK A01 T01650165  RH  100%=      5-min Rain = 0
KCA1 260243Z 06006KT 17/17 A299 RMK A01 T01650165  RH  100%=      5-min Rain = 0
KCA1 260244Z 07005KT 17/17 A299 RMK A01 T01650165  RH  100%=      5-min Rain = 0
KCA1 260245Z 07006KT 17/17 A299 RMK A01 T01650165  RH  100%=      5-min Rain = 0
KCA1 260246Z 08007KT 17/17 A299 RMK A01 T01650165  RH  100%=      5-min Rain = 0
KCA1 260247Z 09006KT 17/17 A2991 RMK A01 T01660166  RH  100%=      5-min Rain = 0
KCA1 260248Z 08006KT 17/17 A2991 RMK A01 T01660166  RH  100%=      5-min Rain = 0
KCA1 260249Z 07006KT 17/17 A299 RMK A01 T01660166  RH  100%=      5-min Rain = 0
KCA1 260250Z 09005KT 17/17 A2991 RMK A01 T01660166  RH  100%=      5-min Rain = 0
KCA1 260251Z 09008KT 17/17 A2991 RMK A01 T01660166  RH  100%=      5-min Rain = 0
KCA1 260252Z 09008KT 17/17 A2991 RMK A01 T01660166  RH  100%=      5-min Rain = 0
KCA1 260253Z 09008KT 17/17 A2991 RMK A01 T01660166  RH  100%=      5-min Rain = 0
KCA1 260254Z 10008KT 17/17 A2991 RMK A01 T01660166  RH  100%=      5-min Rain = 0
KCA1 260255Z 10009KT 17/17 A2991 RMK A01 T01660165  RH  099%=      5-min Rain = 0
KCA1 260256Z 10007KT 17/17 A2991 RMK A01 T01670166  RH  099%=      5-min Rain = 0
KCA1 260257Z 10007KT 17/17 A2991 RMK A01 T01670165  RH  099%=      5-min Rain = 0
KCA1 260258Z 10006KT 17/17 A2991 RMK A01 T01670165  RH  099%=      5-min Rain = 0
KCA1 260259Z 10007KT 17/17 A2991 RMK A01 T01670165  RH  099%=      5-min Rain = 0
KCA1 260300Z 10008KT 17/17 A2991 RMK A01 T01660165  RH  099%=      5-min Rain = 0
KCA1 260301Z 09008KT 17/17 A2991 RMK A01 T01660165  RH  099%=      5-min Rain = 0
KCA1 260302Z 10008KT 17/17 A2991 RMK A01 T01660165  RH  099%=      5-min Rain = 0
KCA1 260303Z 10008KT 17/17 A2991 RMK A01 T01660165  RH  099%=      5-min Rain = 0
KCA1 260304Z 12008KT 17/17 A2991 RMK A01 T01660165  RH  100%=      5-min Rain = 0
KCA1 260305Z 13007KT 17/17 A2991 RMK A01 T01660166  RH  100%=      5-min Rain = 0
KCA1 260306Z 13007KT 17/17 A2992 RMK A01 T01660166  RH  100%=      5-min Rain = 0
KCA1 260307Z 13007KT 17/17 A2992 RMK A01 T01660166  RH  100%=      5-min Rain = 0
KCA1 260308Z 12008KT 17/17 A2992 RMK A01 T01660165  RH  100%=      5-min Rain = 0
KCA1 260309Z 11008KT 17/17 A2992 RMK A01 T01660165  RH  100%=      5-min Rain = 0
KCA1 260310Z 11009KT 17/17 A2992 RMK A01 T01660165  RH  100%=      5-min Rain = 0
KCA1 260311Z 11009KT 17/17 A2992 RMK A01 T01660165  RH  100%=      5-min Rain = 0
KCA1 260312Z 12008KT 17/17 A2992 RMK A01 T01660165  RH  100%=      5-min Rain = 0
KCA1 260313Z 12008KT 17/17 A2992 RMK A01 T01660165  RH  100%=      5-min Rain = 0
KCA1 260314Z 13008KT 17/17 A2992 RMK A01 T01660165  RH  100%=      5-min Rain = 0
KCA1 260315Z 12008KT 17/17 A2992 RMK A01 T01660165  RH  100%=      5-min Rain = 0
KCA1 260316Z 11009KT 17/17 A2992 RMK A01 T01650165  RH  100%=      5-min Rain = 0
KCA1 260317Z 12011KT 17/17 A2993 RMK A01 T01650165  RH  100%=      5-min Rain = 0
KCA1 260318Z 12010KT 17/17 A2993 RMK A01 T01650166  RH  100%=      5-min Rain = 0
KCA1 260319Z 12010KT 17/17 A2993 RMK A01 T01660166  RH  100%=      5-min Rain = 0
KCA1 260320Z 12009KT 17/17 A2993 RMK A01 T01660166  RH  100%=      5-min Rain = 0
KCA1 260321Z 12008KT 17/17 A2993 RMK A01 T01660165  RH  100%=      5-min Rain = 0
KCA1 260322Z 12009KT 17/17 A2993 RMK A01 T01660166  RH  100%=      5-min Rain = 0
KCA1 260323Z 12009KT 17/17 A2994 RMK A01 T01660165  RH  100%=      5-min Rain = 0
KCA1 260324Z 12010KT 17/17 A2994 RMK A01 T01660166  RH  100%=      5-min Rain = 0
KCA1 260325Z 13008KT 17/17 A2994 RMK A01 T01660166  RH  100%=      5-min Rain = 0
KCA1 260326Z 12008KT 17/17 A2994 RMK A01 T01660166  RH  100%=      5-min Rain = 0
KCA1 260327Z 13008KT 17/17 A2994 RMK A01 T01660166  RH  100%=      5-min Rain = 0
KCA1 260328Z 12007KT 17/17 A2994 RMK A01 T01650165  RH  100%=      5-min Rain = 0
KCA1 260329Z 12008KT 17/17 A2994 RMK A01 T01660166  RH  100%=      5-min Rain = 0
KCA1 260330Z 12008KT 17/17 A2994 RMK A01 T01650165  RH  100%=      5-min Rain = 0
KCA1 260331Z 12008KT 17/17 A2994 RMK A01 T01650165  RH  100%=      5-min Rain = 0
KCA1 260332Z 12008KT 17/17 A2994 RMK A01 T01650165  RH  100%=      5-min Rain = 0
KCA1 260333Z 12008KT 17/17 A2994 RMK A01 T01650165  RH  100%=      5-min Rain = 0
KCA1 260334Z 12008KT 17/17 A2994 RMK A01 T01650165  RH  100%=      5-min Rain = 0
KCA1 260335Z 11007KT 17/17 A2994 RMK A01 T01650165  RH  100%=      5-min Rain = 0
KCA1 260336Z 11008KT 17/17 A2994 RMK A01 T01650165  RH  100%=      5-min Rain = 0
KCA1 260337Z 10007KT 17/17 A2994 RMK A01 T01650165  RH  100%=      5-min Rain = 0
KCA1 260338Z 11007KT 17/17 A2994 RMK A01 T01650165  RH  100%=      5-min Rain = 0
KCA1 260339Z 11008KT 16/16 A2994 RMK A01 T01640164  RH  100%=      5-min Rain = 0
KCA1 260340Z 10008KT 16/16 A2994 RMK A01 T01640164  RH  100%=      5-min Rain = 0
KCA1 260341Z 10007KT 16/16 A2994 RMK A01 T01640164  RH  100%=      5-min Rain = 0
KCA1 260342Z 10007KT 17/17 A2994 RMK A01 T01650165  RH  100%=      5-min Rain = 0
KCA1 260343Z 10008KT 17/16 A2995 RMK A01 T01650164  RH  100%=      5-min Rain = 0
KCA1 260344Z 10008KT 17/16 A2995 RMK A01 T01650164  RH  100%=      5-min Rain = 0
KCA1 260345Z 10007KT 17/16 A2995 RMK A01 T01650164  RH  100%=      5-min Rain = 0
KCA1 260346Z 09008KT 16/16 A2995 RMK A01 T01640164  RH  100%=      5-min Rain = 0
KCA1 260347Z 09008KT 17/16 A2995 RMK A01 T01650164  RH  100%=      5-min Rain = 0
KCA1 260348Z 08008KT 17/16 A2995 RMK A01 T01650164  RH  100%=      5-min Rain = 0
KCA1 260349Z 08008KT 17/16 A2995 RMK A01 T01650164  RH  099%=      5-min Rain = 0
KCA1 260350Z 08008KT 17/16 A2996 RMK A01 T01650164  RH  099%=      5-min Rain = 0
KCA1 260351Z 07008KT 17/17 A2996 RMK A01 T01650165  RH  099%=      5-min Rain = 0
KCA1 260352Z 07008KT 17/17 A2996 RMK A01 T01660165  RH  099%=      5-min Rain = 0
KCA1 260353Z 07008KT 17/17 A2996 RMK A01 T01660165  RH  099%=      5-min Rain = 0
KCA1 260354Z 06008KT 17/16 A2996 RMK A01 T01650164  RH  099%=      5-min Rain = 0
KCA1 260355Z 06009KT 17/16 A2997 RMK A01 T01650164  RH  099%=      5-min Rain = 0
KCA1 260356Z 05009KT 17/16 A2997 RMK A01 T01650164  RH  099%=      5-min Rain = 0
KCA1 260357Z 05009KT 17/16 A2997 RMK A01 T01650164  RH  099%=      5-min Rain = 0
KCA1 260358Z 05009KT 17/16 A2997 RMK A01 T01650164  RH  099%=      5-min Rain = 0
KCA1 260359Z 05009KT 17/16 A2997 RMK A01 T01650164  RH  099%=      5-min Rain = 0
KCA1 260400Z 05008KT 17/16 A2997 RMK A01 T01650164  RH  099%=      5-min Rain = 0
KCA1 260401Z 05009KT 17/16 A2997 RMK A01 T01650164  RH  100%=      5-min Rain = 0
KCA1 260402Z 05009KT 17/16 A2997 RMK A01 T01650164  RH  100%=      5-min Rain = 0
KCA1 260403Z 04009KT 17/16 A2997 RMK A01 T01650164  RH  100%=      5-min Rain = 0
KCA1 260404Z 05009KT 17/17 A2997 RMK A01 T01650165  RH  100%=      5-min Rain = 0
KCA1 260405Z 05009KT 17/17 A2997 RMK A01 T01650165  RH  100%=      5-min Rain = 0
KCA1 260406Z 06009KT 17/17 A2997 RMK A01 T01650165  RH  100%=      5-min Rain = 0
KCA1 260407Z 06008KT 17/17 A2997 RMK A01 T01650165  RH  100%=      5-min Rain = 0
KCA1 260408Z 06009KT 17/17 A2997 RMK A01 T01660166  RH  100%=      5-min Rain = 0
KCA1 260409Z 06008KT 17/17 A2996 RMK A01 T01660167  RH  100%=      5-min Rain = 0
KCA1 260410Z 06007KT 17/17 A2996 RMK A01 T01670168  RH  100%=      5-min Rain = 0
KCA1 260411Z 07008KT 17/17 A2996 RMK A01 T01680168  RH  100%=      5-min Rain = 0
KCA1 260412Z 07008KT 17/17 A2996 RMK A01 T01690169  RH  100%=      5-min Rain = 0
KCA1 260413Z 07009KT 17/17 A2996 RMK A01 T01690169  RH  100%=      5-min Rain = 0
KCA1 260414Z 07008KT 17/17 A2996 RMK A01 T01700170  RH  100%=      5-min Rain = 0
KCA1 260415Z 08008KT 17/17 A2996 RMK A01 T01710171  RH  100%=      5-min Rain = 0
KCA1 260416Z 07008KT 17/17 A2995 RMK A01 T01720171  RH  099%=      5-min Rain = 0
KCA1 260417Z 08008KT 17/17 A2995 RMK A01 T01720171  RH  099%=      5-min Rain = 0
KCA1 260418Z 08008KT 17/17 A2995 RMK A01 T01730171  RH  099%=      5-min Rain = 0
KCA1 260419Z 08008KT 17/17 A2995 RMK A01 T01730171  RH  099%=      5-min Rain = 0
KCA1 260420Z 08008KT 17/17 A2995 RMK A01 T01730171  RH  099%=      5-min Rain = 0
KCA1 260421Z 08008KT 17/17 A2995 RMK A01 T01740171  RH  098%=      5-min Rain = 0
KCA1 260422Z 08007KT 17/17 A2995 RMK A01 T01740171  RH  098%=      5-min Rain = 0
KCA1 260423Z 08007KT 17/17 A2995 RMK A01 T01730171  RH  098%=      5-min Rain = 0
KCA1 260424Z 08007KT 17/17 A2995 RMK A01 T01740171  RH  098%=      5-min Rain = 0
KCA1 260425Z 09007KT 17/17 A2995 RMK A01 T01740171  RH  098%=      5-min Rain = 0
KCA1 260426Z 09007KT 17/17 A2995 RMK A01 T01730171  RH  098%=      5-min Rain = 0
KCA1 260427Z 09007KT 17/17 A2995 RMK A01 T01740171  RH  098%=      5-min Rain = 0
KCA1 260428Z 09007KT 17/17 A2995 RMK A01 T01740171  RH  098%=      5-min Rain = 0
KCA1 260429Z 08007KT 17/17 A2995 RMK A01 T01740171  RH  098%=      5-min Rain = 0
KCA1 260430Z 08007KT 17/17 A2995 RMK A01 T01740171  RH  098%=      5-min Rain = 0
KCA1 260431Z 09007KT 17/17 A2995 RMK A01 T01740171  RH  098%=      5-min Rain = 0
KCA1 260432Z 09007KT 17/17 A2995 RMK A01 T01740171  RH  098%=      5-min Rain = 0
KCA1 260433Z 09007KT 17/17 A2995 RMK A01 T01740171  RH  098%=      5-min Rain = 0
KCA1 260434Z 09007KT 17/17 A2994 RMK A01 T01740171  RH  098%=      5-min Rain = 0
KCA1 260435Z 09008KT 17/17 A2995 RMK A01 T01740171  RH  098%=      5-min Rain = 0
KCA1 260436Z 09007KT 17/17 A2995 RMK A01 T01740171  RH  098%=      5-min Rain = 0
KCA1 260437Z 09007KT 17/17 A2995 RMK A01 T01740171  RH  098%=      5-min Rain = 0
KCA1 260438Z 09007KT 17/17 A2995 RMK A01 T01740171  RH  098%=      5-min Rain = 0
KCA1 260439Z 09008KT 17/17 A2994 RMK A01 T01740171  RH  098%=      5-min Rain = 0
KCA1 260440Z 09007KT 17/17 A2994 RMK A01 T01740171  RH  098%=      5-min Rain = 0
KCA1 260441Z 09008KT 17/17 A2994 RMK A01 T01740171  RH  098%=      5-min Rain = 0
KCA1 260442Z 09008KT 17/17 A2994 RMK A01 T01740171  RH  098%=      5-min Rain = 0
KCA1 260443Z 10007KT 17/17 A2994 RMK A01 T01740171  RH  098%=      5-min Rain = 0
KCA1 260444Z 10008KT 17/17 A2994 RMK A01 T01740171  RH  098%=      5-min Rain = 0
KCA1 260445Z 10008KT 17/17 A2994 RMK A01 T01740171  RH  098%=      5-min Rain = 0
KCA1 260446Z 10007KT 17/17 A2994 RMK A01 T01740171  RH  098%=      5-min Rain = 0
KCA1 260447Z 10007KT 17/17 A2994 RMK A01 T01740171  RH  098%=      5-min Rain = 0
KCA1 260448Z 10007KT 17/17 A2994 RMK A01 T01740171  RH  099%=      5-min Rain = 0
KCA1 260449Z 10007KT 17/17 A2994 RMK A01 T01730171  RH  099%=      5-min Rain = 0
KCA1 260450Z 10007KT 17/17 A2994 RMK A01 T01740171  RH  098%=      5-min Rain = 0
KCA1 260451Z 11007KT 17/17 A2994 RMK A01 T01740171  RH  098%=      5-min Rain = 0
KCA1 260452Z 11007KT 17/17 A2994 RMK A01 T01740171  RH  098%=      5-min Rain = 0
KCA1 260453Z 11007KT 17/17 A2994 RMK A01 T01740171  RH  098%=      5-min Rain = 0
KCA1 260454Z 11006KT 17/17 A2994 RMK A01 T01740171  RH  098%=      5-min Rain = 0
KCA1 260455Z 12006KT 17/17 A2994 RMK A01 T01740171  RH  098%=      5-min Rain = 0
KCA1 260456Z 12006KT 17/17 A2994 RMK A01 T01740171  RH  098%=      5-min Rain = 0
KCA1 260457Z 13007KT 17/17 A2994 RMK A01 T01740172  RH  098%=      5-min Rain = 0
KCA1 260458Z 13006KT 17/17 A2994 RMK A01 T01740171  RH  098%=      5-min Rain = 0
KCA1 260459Z 14005KT 17/17 A2994 RMK A01 T01740171  RH  099%=      5-min Rain = 0

Page generated in 0.1244 seconds.